DLH401 KJFK-EDDF
Flight info
| Callsign | DLH401 |
|---|---|
| Flight time | 6h 52m |
| Altitude | 35000 |
| Route | HAPIE DCT YAHOO DCT WHALE N93B SUPRY NATV ELSOX DCT LESLU DCT OXLOW DCT KONAN DCT KOK DCT SPI T180 NIVNU T847 IMCOM |
| Aircraft | A346/H-SDE2E3FGHIJ3J4J5M1RWXY/LB1D1 |
Departure
| Time | 2026-04-13 01:38 |
|---|---|
| Airport | John F. Kennedy International Airport (KJFK) |
Arrival
| Time | 2026-04-13 08:30 |
|---|---|
| Airport | Frankfurt Main Airport (EDDF) |
| Time | Latitude | Longitude | Altitude | Speed | Heading |
|---|---|---|---|---|---|
| 2026-04-13 01:05 | 40.64180 | -73.79334 | 38 ft | 0 kts | 108° |
| 2026-04-13 01:26 | 40.64186 | -73.79353 | 29 ft | 4 kts | 126° |
| 2026-04-13 01:26 | 40.64195 | -73.79364 | 29 ft | 4 kts | 171° |
| 2026-04-13 01:26 | 40.64201 | -73.79363 | 28 ft | 2 kts | 217° |
| 2026-04-13 01:27 | 40.64218 | -73.79344 | 27 ft | 4 kts | 221° |
| 2026-04-13 01:27 | 40.64238 | -73.79320 | 26 ft | 4 kts | 225° |
| 2026-04-13 01:27 | 40.64253 | -73.79300 | 26 ft | 0 kts | 224° |
| 2026-04-13 01:31 | 40.64252 | -73.79302 | 26 ft | 1 kts | 225° |
| 2026-04-13 01:31 | 40.64240 | -73.79325 | 26 ft | 5 kts | 242° |
| 2026-04-13 01:31 | 40.64223 | -73.79388 | 26 ft | 9 kts | 255° |
| 2026-04-13 01:32 | 40.64201 | -73.79493 | 29 ft | 14 kts | 253° |
| 2026-04-13 01:32 | 40.64171 | -73.79629 | 29 ft | 16 kts | 258° |
| 2026-04-13 01:32 | 40.64155 | -73.79744 | 29 ft | 12 kts | 260° |
| 2026-04-13 01:32 | 40.64158 | -73.79858 | 29 ft | 13 kts | 291° |
| 2026-04-13 01:33 | 40.64224 | -73.79958 | 29 ft | 15 kts | 316° |
| 2026-04-13 01:33 | 40.64291 | -73.80076 | 29 ft | 17 kts | 299° |
| 2026-04-13 01:33 | 40.64355 | -73.80221 | 28 ft | 20 kts | 301° |
| 2026-04-13 01:33 | 40.64418 | -73.80360 | 27 ft | 16 kts | 301° |
| 2026-04-13 01:34 | 40.64480 | -73.80495 | 28 ft | 18 kts | 301° |
| 2026-04-13 01:34 | 40.64542 | -73.80634 | 29 ft | 15 kts | 301° |
| 2026-04-13 01:34 | 40.64598 | -73.80757 | 29 ft | 16 kts | 301° |
| 2026-04-13 01:34 | 40.64658 | -73.80889 | 30 ft | 18 kts | 301° |
| 2026-04-13 01:35 | 40.64726 | -73.81039 | 30 ft | 20 kts | 301° |
| 2026-04-13 01:35 | 40.64803 | -73.81209 | 29 ft | 23 kts | 301° |
| 2026-04-13 01:35 | 40.64882 | -73.81382 | 29 ft | 16 kts | 301° |
| 2026-04-13 01:35 | 40.64919 | -73.81466 | 29 ft | 3 kts | 300° |
| 2026-04-13 01:36 | 40.64936 | -73.81504 | 29 ft | 6 kts | 298° |
| 2026-04-13 01:36 | 40.64934 | -73.81562 | 29 ft | 7 kts | 236° |
| 2026-04-13 01:36 | 40.64892 | -73.81602 | 30 ft | 8 kts | 211° |
| 2026-04-13 01:36 | 40.64851 | -73.81629 | 31 ft | 0 kts | 195° |
| 2026-04-13 01:37 | 40.64849 | -73.81630 | 31 ft | 1 kts | 194° |
| 2026-04-13 01:37 | 40.64831 | -73.81628 | 31 ft | 5 kts | 163° |
| 2026-04-13 01:37 | 40.64798 | -73.81584 | 31 ft | 8 kts | 122° |
| 2026-04-13 01:37 | 40.64704 | -73.81378 | 32 ft | 57 kts | 121° |
| 2026-04-13 01:38 | 40.64367 | -73.80636 | 29 ft | 129 kts | 121° |
| 2026-04-13 01:38 | 40.63811 | -73.79393 | 93 ft | 178 kts | 122° |
| 2026-04-13 01:38 | 40.63198 | -73.77972 | 865 ft | 178 kts | 122° |
| 2026-04-13 01:38 | 40.62558 | -73.76584 | 1759 ft | 175 kts | 136° |
| 2026-04-13 01:39 | 40.61751 | -73.75360 | 2379 ft | 181 kts | 142° |
| 2026-04-13 01:39 | 40.60855 | -73.74096 | 2749 ft | 195 kts | 142° |
| 2026-04-13 01:39 | 40.59894 | -73.72760 | 3213 ft | 204 kts | 142° |
| 2026-04-13 01:39 | 40.58913 | -73.71402 | 3747 ft | 207 kts | 142° |
| 2026-04-13 01:40 | 40.57874 | -73.69994 | 4166 ft | 221 kts | 142° |
| 2026-04-13 01:40 | 40.56760 | -73.68522 | 4660 ft | 231 kts | 142° |
| 2026-04-13 01:40 | 40.55587 | -73.67022 | 5111 ft | 245 kts | 142° |
| 2026-04-13 01:40 | 40.54326 | -73.65417 | 5598 ft | 261 kts | 135° |
| 2026-04-13 01:41 | 40.53406 | -73.63263 | 6080 ft | 281 kts | 110° |
| 2026-04-13 01:41 | 40.52871 | -73.60706 | 6562 ft | 297 kts | 104° |
| 2026-04-13 01:41 | 40.52386 | -73.58013 | 7183 ft | 305 kts | 104° |
| 2026-04-13 01:41 | 40.51865 | -73.55283 | 7904 ft | 309 kts | 105° |
| 2026-04-13 01:42 | 40.51299 | -73.52540 | 8621 ft | 313 kts | 107° |
| 2026-04-13 01:42 | 40.50689 | -73.49754 | 9341 ft | 317 kts | 107° |
| 2026-04-13 01:42 | 40.50054 | -73.46948 | 10039 ft | 322 kts | 108° |
| 2026-04-13 01:43 | 40.47966 | -73.37951 | 11229 ft | 367 kts | 108° |
| 2026-04-13 01:43 | 40.47197 | -73.34662 | 11526 ft | 385 kts | 108° |
| 2026-04-13 01:43 | 40.46393 | -73.31230 | 11822 ft | 401 kts | 108° |
| 2026-04-13 01:44 | 40.45553 | -73.27652 | 12164 ft | 416 kts | 107° |
| 2026-04-13 01:44 | 40.44694 | -73.23989 | 12779 ft | 421 kts | 107° |
| 2026-04-13 01:44 | 40.44120 | -73.21543 | 13266 ft | 423 kts | 107° |
| 2026-04-13 01:44 | 40.43248 | -73.17832 | 13988 ft | 427 kts | 107° |
| 2026-04-13 01:45 | 40.42072 | -73.12842 | 14833 ft | 432 kts | 107° |
| 2026-04-13 01:45 | 40.41178 | -73.09055 | 15447 ft | 436 kts | 107° |
| 2026-04-13 01:45 | 40.40565 | -73.06464 | 15877 ft | 438 kts | 107° |
| 2026-04-13 01:45 | 40.39674 | -73.02666 | 16476 ft | 442 kts | 105° |
| 2026-04-13 01:46 | 40.39181 | -72.98676 | 17004 ft | 446 kts | 91° |
| 2026-04-13 01:46 | 40.39416 | -72.94617 | 17610 ft | 447 kts | 76° |
| 2026-04-13 01:46 | 40.40216 | -72.90672 | 18268 ft | 447 kts | 70° |
| 2026-04-13 01:46 | 40.41132 | -72.86761 | 18879 ft | 449 kts | 70° |
| 2026-04-13 01:47 | 40.42065 | -72.82822 | 19382 ft | 453 kts | 70° |
| 2026-04-13 01:47 | 40.42996 | -72.78847 | 19899 ft | 457 kts | 70° |
| 2026-04-13 01:47 | 40.43921 | -72.74832 | 20420 ft | 460 kts | 70° |
| 2026-04-13 01:47 | 40.44843 | -72.70784 | 20942 ft | 463 kts | 70° |
| 2026-04-13 01:48 | 40.45763 | -72.66713 | 21469 ft | 466 kts | 70° |
| 2026-04-13 01:48 | 40.46685 | -72.62606 | 21972 ft | 470 kts | 70° |
| 2026-04-13 01:48 | 40.47611 | -72.58471 | 22477 ft | 473 kts | 70° |
| 2026-04-13 01:48 | 40.48542 | -72.54300 | 22989 ft | 476 kts | 70° |
| 2026-04-13 01:49 | 40.49476 | -72.50104 | 23488 ft | 479 kts | 70° |
| 2026-04-13 01:49 | 40.50414 | -72.45882 | 23964 ft | 483 kts | 70° |
| 2026-04-13 01:49 | 40.51358 | -72.41627 | 24364 ft | 486 kts | 70° |
| 2026-04-13 01:49 | 40.52306 | -72.37340 | 24785 ft | 489 kts | 70° |
| 2026-04-13 01:50 | 40.53257 | -72.33031 | 25191 ft | 491 kts | 70° |
| 2026-04-13 01:50 | 40.54212 | -72.28698 | 25586 ft | 494 kts | 70° |
| 2026-04-13 01:50 | 40.55171 | -72.24339 | 26003 ft | 497 kts | 70° |
| 2026-04-13 01:50 | 40.56133 | -72.19951 | 26422 ft | 499 kts | 70° |
| 2026-04-13 01:51 | 40.57085 | -72.15606 | 26824 ft | 501 kts | 69° |
| 2026-04-13 01:51 | 40.58053 | -72.11179 | 27218 ft | 504 kts | 69° |
| 2026-04-13 01:51 | 40.59025 | -72.06728 | 27604 ft | 507 kts | 69° |
| 2026-04-13 01:51 | 40.59999 | -72.02257 | 27962 ft | 509 kts | 69° |
| 2026-04-13 01:52 | 40.60976 | -71.97760 | 28338 ft | 512 kts | 69° |
| 2026-04-13 01:52 | 40.61959 | -71.93228 | 28714 ft | 515 kts | 69° |
| 2026-04-13 01:52 | 40.62938 | -71.88697 | 29215 ft | 514 kts | 69° |
| 2026-04-13 01:52 | 40.63912 | -71.84170 | 29816 ft | 511 kts | 69° |
| 2026-04-13 01:53 | 40.64880 | -71.79669 | 30395 ft | 509 kts | 69° |
| 2026-04-13 01:53 | 40.65845 | -71.75179 | 30880 ft | 508 kts | 69° |
| 2026-04-13 01:53 | 40.66806 | -71.70695 | 31312 ft | 507 kts | 68° |
| 2026-04-13 01:53 | 40.67765 | -71.66220 | 31750 ft | 506 kts | 68° |
| 2026-04-13 01:54 | 40.68720 | -71.61751 | 32183 ft | 506 kts | 68° |
| 2026-04-13 01:54 | 40.69673 | -71.57281 | 32614 ft | 505 kts | 68° |
| 2026-04-13 01:54 | 40.70618 | -71.52828 | 33077 ft | 504 kts | 68° |
| 2026-04-13 01:54 | 40.71562 | -71.48375 | 33478 ft | 503 kts | 68° |
| 2026-04-13 01:55 | 40.72505 | -71.43927 | 33866 ft | 503 kts | 67° |
| 2026-04-13 01:55 | 40.73436 | -71.39532 | 34197 ft | 504 kts | 67° |
| 2026-04-13 01:55 | 40.74381 | -71.35066 | 34489 ft | 506 kts | 67° |
| 2026-04-13 01:55 | 40.75325 | -71.30587 | 34731 ft | 507 kts | 67° |
| 2026-04-13 01:56 | 40.76267 | -71.26104 | 35009 ft | 507 kts | 67° |
| 2026-04-13 01:56 | 40.77208 | -71.21608 | 35331 ft | 507 kts | 67° |
| 2026-04-13 01:56 | 40.78147 | -71.17120 | 35443 ft | 507 kts | 67° |
| 2026-04-13 01:57 | 40.80024 | -71.08131 | 35456 ft | 507 kts | 67° |
| 2026-04-13 01:57 | 40.81893 | -70.99145 | 35476 ft | 508 kts | 67° |
| 2026-04-13 01:58 | 40.83758 | -70.90128 | 35467 ft | 509 kts | 67° |
| 2026-04-13 01:58 | 40.85615 | -70.81097 | 35473 ft | 508 kts | 67° |
| 2026-04-13 01:59 | 40.87469 | -70.72056 | 35466 ft | 508 kts | 67° |
| 2026-04-13 01:59 | 40.89315 | -70.63015 | 35468 ft | 509 kts | 67° |
| 2026-04-13 02:00 | 40.91141 | -70.54027 | 35470 ft | 509 kts | 67° |
| 2026-04-13 02:00 | 40.92967 | -70.44991 | 35489 ft | 508 kts | 67° |
| 2026-04-13 02:01 | 40.94789 | -70.35944 | 35476 ft | 508 kts | 67° |
| 2026-04-13 02:01 | 40.96487 | -70.27485 | 35473 ft | 508 kts | 67° |
| 2026-04-13 02:02 | 40.98295 | -70.18431 | 35489 ft | 508 kts | 67° |
| 2026-04-13 02:02 | 41.00086 | -70.09414 | 35472 ft | 506 kts | 67° |
| 2026-04-13 02:03 | 41.01872 | -70.00388 | 35465 ft | 506 kts | 67° |
| 2026-04-13 02:03 | 41.03649 | -69.91369 | 35469 ft | 506 kts | 68° |
| 2026-04-13 02:04 | 41.05457 | -69.82360 | 35478 ft | 503 kts | 65° |
| 2026-04-13 02:04 | 41.07782 | -69.73701 | 35472 ft | 495 kts | 58° |
| 2026-04-13 02:05 | 41.10767 | -69.65560 | 35481 ft | 487 kts | 52° |
| 2026-04-13 02:05 | 41.14106 | -69.57753 | 35483 ft | 486 kts | 51° |
| 2026-04-13 02:06 | 41.17464 | -69.49948 | 35498 ft | 486 kts | 51° |
| 2026-04-13 02:06 | 41.20803 | -69.42137 | 35488 ft | 486 kts | 52° |
| 2026-04-13 02:07 | 41.24136 | -69.34305 | 35485 ft | 486 kts | 52° |
| 2026-04-13 02:07 | 41.27445 | -69.26504 | 35484 ft | 487 kts | 52° |
| 2026-04-13 02:08 | 41.30766 | -69.18650 | 35524 ft | 487 kts | 52° |
| 2026-04-13 02:08 | 41.34088 | -69.10773 | 35492 ft | 488 kts | 52° |
| 2026-04-13 02:09 | 41.37410 | -69.02877 | 35483 ft | 488 kts | 52° |
| 2026-04-13 02:09 | 41.40727 | -68.94972 | 35483 ft | 489 kts | 52° |
| 2026-04-13 02:10 | 41.44040 | -68.87055 | 35483 ft | 489 kts | 52° |
| 2026-04-13 02:10 | 41.47349 | -68.79114 | 35503 ft | 488 kts | 52° |
| 2026-04-13 02:11 | 41.50645 | -68.71200 | 35497 ft | 488 kts | 52° |
| 2026-04-13 02:11 | 41.53917 | -68.63324 | 35495 ft | 488 kts | 52° |
| 2026-04-13 02:12 | 41.57207 | -68.55377 | 35492 ft | 488 kts | 52° |
| 2026-04-13 02:12 | 41.60485 | -68.47433 | 35510 ft | 488 kts | 51° |
| 2026-04-13 02:13 | 41.63760 | -68.39482 | 35498 ft | 488 kts | 52° |
| 2026-04-13 02:13 | 41.67031 | -68.31521 | 35496 ft | 488 kts | 52° |
| 2026-04-13 02:14 | 41.70298 | -68.23545 | 35496 ft | 488 kts | 52° |
| 2026-04-13 02:14 | 41.73563 | -68.15551 | 35496 ft | 489 kts | 52° |
| 2026-04-13 02:15 | 41.76821 | -68.07554 | 35490 ft | 489 kts | 52° |
| 2026-04-13 02:15 | 41.80076 | -67.99542 | 35491 ft | 489 kts | 52° |
| 2026-04-13 02:16 | 41.83329 | -67.91514 | 35495 ft | 489 kts | 52° |
| 2026-04-13 02:16 | 41.86578 | -67.83474 | 35497 ft | 490 kts | 52° |
| 2026-04-13 02:17 | 41.89824 | -67.75418 | 35493 ft | 490 kts | 52° |
| 2026-04-13 02:17 | 41.93045 | -67.67400 | 35491 ft | 490 kts | 52° |
| 2026-04-13 02:18 | 41.96282 | -67.59323 | 35492 ft | 490 kts | 52° |
| 2026-04-13 02:18 | 41.99513 | -67.51229 | 35512 ft | 490 kts | 52° |
| 2026-04-13 02:19 | 42.02731 | -67.43155 | 35490 ft | 490 kts | 52° |
| 2026-04-13 02:19 | 42.05956 | -67.35044 | 35492 ft | 490 kts | 52° |
| 2026-04-13 02:20 | 42.09167 | -67.26945 | 35495 ft | 490 kts | 52° |
| 2026-04-13 02:20 | 42.12369 | -67.18834 | 35516 ft | 489 kts | 52° |
| 2026-04-13 02:21 | 42.15564 | -67.10726 | 35495 ft | 489 kts | 52° |
| 2026-04-13 02:21 | 42.18745 | -67.02612 | 35488 ft | 490 kts | 53° |
| 2026-04-13 02:22 | 42.21561 | -66.94154 | 35496 ft | 497 kts | 58° |
| 2026-04-13 02:22 | 42.24154 | -66.85478 | 35507 ft | 498 kts | 58° |
| 2026-04-13 02:23 | 42.26633 | -66.77130 | 35494 ft | 498 kts | 58° |
| 2026-04-13 02:23 | 42.29212 | -66.68449 | 35492 ft | 498 kts | 58° |
| 2026-04-13 02:24 | 42.31793 | -66.59744 | 35492 ft | 498 kts | 58° |
| 2026-04-13 02:24 | 42.34367 | -66.51031 | 35495 ft | 497 kts | 58° |
| 2026-04-13 02:25 | 42.36935 | -66.42314 | 35493 ft | 497 kts | 58° |
| 2026-04-13 02:25 | 42.39489 | -66.33617 | 35492 ft | 497 kts | 58° |
| 2026-04-13 02:26 | 42.42041 | -66.24898 | 35508 ft | 497 kts | 58° |
| 2026-04-13 02:26 | 42.44579 | -66.16190 | 35514 ft | 497 kts | 58° |
| 2026-04-13 02:27 | 42.47112 | -66.07472 | 35499 ft | 497 kts | 58° |
| 2026-04-13 02:27 | 42.49640 | -65.98748 | 35490 ft | 497 kts | 58° |
| 2026-04-13 02:28 | 42.52163 | -65.90011 | 35498 ft | 497 kts | 58° |
| 2026-04-13 02:28 | 42.54678 | -65.81270 | 35494 ft | 497 kts | 58° |
| 2026-04-13 02:29 | 42.57175 | -65.72540 | 35508 ft | 498 kts | 58° |
| 2026-04-13 02:29 | 42.59688 | -65.63753 | 35495 ft | 498 kts | 58° |
| 2026-04-13 02:30 | 42.61768 | -65.56454 | 35488 ft | 498 kts | 58° |
| 2026-04-13 02:30 | 42.64265 | -65.47659 | 35486 ft | 498 kts | 58° |
| 2026-04-13 02:31 | 42.66286 | -65.40518 | 35508 ft | 499 kts | 58° |
| 2026-04-13 02:31 | 42.68674 | -65.32039 | 35492 ft | 501 kts | 57° |
| 2026-04-13 02:32 | 42.71163 | -65.23181 | 35496 ft | 501 kts | 57° |
| 2026-04-13 02:32 | 42.73653 | -65.14298 | 35486 ft | 502 kts | 57° |
| 2026-04-13 02:33 | 42.76138 | -65.05404 | 35485 ft | 502 kts | 57° |
| 2026-04-13 02:33 | 42.78610 | -64.96503 | 35483 ft | 503 kts | 57° |
| 2026-04-13 02:34 | 42.81084 | -64.87582 | 35478 ft | 503 kts | 57° |
| 2026-04-13 02:34 | 42.83552 | -64.78648 | 35477 ft | 503 kts | 57° |
| 2026-04-13 02:35 | 42.85996 | -64.69765 | 35485 ft | 503 kts | 57° |
| 2026-04-13 02:35 | 42.88451 | -64.60809 | 35491 ft | 504 kts | 57° |
| 2026-04-13 02:36 | 42.90906 | -64.51826 | 35475 ft | 505 kts | 57° |
| 2026-04-13 02:36 | 42.93354 | -64.42832 | 35468 ft | 505 kts | 57° |
| 2026-04-13 02:37 | 42.95795 | -64.33830 | 35468 ft | 505 kts | 57° |
| 2026-04-13 02:37 | 42.98230 | -64.24814 | 35503 ft | 505 kts | 57° |
| 2026-04-13 02:38 | 43.00667 | -64.15796 | 35479 ft | 507 kts | 58° |
| 2026-04-13 02:38 | 43.03095 | -64.06730 | 35467 ft | 507 kts | 58° |
| 2026-04-13 02:39 | 43.05516 | -63.97653 | 35462 ft | 508 kts | 58° |
| 2026-04-13 02:39 | 43.07933 | -63.88563 | 35460 ft | 508 kts | 58° |
| 2026-04-13 02:40 | 43.09955 | -63.80957 | 35474 ft | 508 kts | 59° |
| 2026-04-13 02:40 | 43.12344 | -63.71915 | 35454 ft | 508 kts | 59° |
| 2026-04-13 02:41 | 43.14743 | -63.62791 | 35451 ft | 508 kts | 59° |
| 2026-04-13 02:41 | 43.17137 | -63.53661 | 35451 ft | 508 kts | 59° |
| 2026-04-13 02:42 | 43.19526 | -63.44527 | 35474 ft | 509 kts | 60° |
| 2026-04-13 02:42 | 43.21905 | -63.35376 | 35453 ft | 509 kts | 60° |
| 2026-04-13 02:43 | 43.24277 | -63.26203 | 35450 ft | 510 kts | 60° |
| 2026-04-13 02:43 | 43.26644 | -63.17029 | 35448 ft | 510 kts | 60° |
| 2026-04-13 02:44 | 43.29011 | -63.07834 | 35479 ft | 509 kts | 60° |
| 2026-04-13 02:44 | 43.31365 | -62.98645 | 35450 ft | 509 kts | 60° |
| 2026-04-13 02:45 | 43.33710 | -62.89458 | 35441 ft | 509 kts | 60° |
| 2026-04-13 02:45 | 43.36051 | -62.80254 | 35441 ft | 509 kts | 60° |
| 2026-04-13 02:46 | 43.38386 | -62.71035 | 35440 ft | 510 kts | 60° |
| 2026-04-13 02:46 | 43.40698 | -62.61872 | 35446 ft | 510 kts | 60° |
| 2026-04-13 02:47 | 43.44171 | -62.48033 | 35444 ft | 509 kts | 60° |
| 2026-04-13 02:47 | 43.46479 | -62.38795 | 35434 ft | 509 kts | 60° |
| 2026-04-13 02:48 | 43.48778 | -62.29559 | 35481 ft | 509 kts | 60° |
| 2026-04-13 02:48 | 43.51066 | -62.20318 | 35461 ft | 509 kts | 60° |
| 2026-04-13 02:49 | 43.53350 | -62.11073 | 35447 ft | 509 kts | 60° |
| 2026-04-13 02:49 | 43.55627 | -62.01811 | 35453 ft | 509 kts | 60° |
| 2026-04-13 02:50 | 43.57894 | -61.92552 | 35443 ft | 509 kts | 61° |
| 2026-04-13 02:50 | 43.60151 | -61.83292 | 35459 ft | 509 kts | 60° |
| 2026-04-13 02:51 | 43.62394 | -61.74063 | 35446 ft | 509 kts | 60° |
| 2026-04-13 02:51 | 43.64641 | -61.64776 | 35442 ft | 509 kts | 61° |
| 2026-04-13 02:52 | 43.66881 | -61.55479 | 35442 ft | 509 kts | 61° |
| 2026-04-13 02:52 | 43.69113 | -61.46173 | 35481 ft | 510 kts | 61° |
| 2026-04-13 02:53 | 43.71342 | -61.36840 | 35452 ft | 511 kts | 61° |
| 2026-04-13 02:53 | 43.73568 | -61.27491 | 35442 ft | 511 kts | 61° |
| 2026-04-13 02:54 | 43.75785 | -61.18132 | 35440 ft | 511 kts | 61° |
| 2026-04-13 02:54 | 43.77998 | -61.08755 | 35441 ft | 511 kts | 61° |
| 2026-04-13 02:55 | 43.80199 | -60.99382 | 35448 ft | 512 kts | 61° |
| 2026-04-13 02:55 | 43.82397 | -60.89992 | 35447 ft | 512 kts | 61° |
| 2026-04-13 02:56 | 43.84572 | -60.80654 | 35435 ft | 512 kts | 61° |
| 2026-04-13 02:56 | 43.86755 | -60.71244 | 35433 ft | 512 kts | 61° |
| 2026-04-13 02:57 | 43.88929 | -60.61831 | 35445 ft | 512 kts | 61° |
| 2026-04-13 02:57 | 43.91095 | -60.52417 | 35432 ft | 512 kts | 61° |
| 2026-04-13 02:58 | 43.93254 | -60.42990 | 35416 ft | 512 kts | 61° |
| 2026-04-13 02:58 | 43.95407 | -60.33550 | 35428 ft | 512 kts | 61° |
| 2026-04-13 02:59 | 43.97548 | -60.24116 | 35459 ft | 512 kts | 61° |
| 2026-04-13 02:59 | 43.99681 | -60.14676 | 35425 ft | 512 kts | 61° |
| 2026-04-13 03:00 | 44.01809 | -60.05227 | 35420 ft | 512 kts | 61° |
| 2026-04-13 03:00 | 44.03926 | -59.95780 | 35415 ft | 512 kts | 62° |
| 2026-04-13 03:01 | 44.06027 | -59.86366 | 35413 ft | 512 kts | 62° |
| 2026-04-13 03:01 | 44.07507 | -59.79703 | 35435 ft | 513 kts | 62° |
| 2026-04-13 03:02 | 44.09615 | -59.70185 | 35421 ft | 514 kts | 62° |
| 2026-04-13 03:02 | 44.11718 | -59.60651 | 35410 ft | 515 kts | 62° |
| 2026-04-13 03:03 | 44.13813 | -59.51102 | 35405 ft | 515 kts | 62° |
| 2026-04-13 03:03 | 44.15902 | -59.41540 | 35439 ft | 515 kts | 62° |
| 2026-04-13 03:04 | 44.17987 | -59.31951 | 35406 ft | 517 kts | 62° |
| 2026-04-13 03:04 | 44.20065 | -59.22354 | 35397 ft | 517 kts | 62° |
| 2026-04-13 03:05 | 44.22138 | -59.12735 | 35402 ft | 519 kts | 62° |
| 2026-04-13 03:05 | 44.24212 | -59.03069 | 35391 ft | 520 kts | 62° |
| 2026-04-13 03:06 | 44.26264 | -58.93449 | 35401 ft | 521 kts | 62° |
| 2026-04-13 03:06 | 44.28329 | -58.83736 | 35392 ft | 521 kts | 62° |
| 2026-04-13 03:07 | 44.30388 | -58.74006 | 35373 ft | 521 kts | 62° |
| 2026-04-13 03:07 | 44.32438 | -58.64269 | 35367 ft | 522 kts | 62° |
| 2026-04-13 03:08 | 44.34478 | -58.54527 | 35381 ft | 522 kts | 62° |
| 2026-04-13 03:08 | 44.36513 | -58.44767 | 35365 ft | 522 kts | 62° |
| 2026-04-13 03:09 | 44.38540 | -58.35005 | 35366 ft | 522 kts | 62° |
| 2026-04-13 03:09 | 44.40546 | -58.25296 | 35355 ft | 522 kts | 62° |
| 2026-04-13 03:10 | 44.42558 | -58.15505 | 35403 ft | 522 kts | 62° |
| 2026-04-13 03:10 | 44.44561 | -58.05710 | 35360 ft | 523 kts | 62° |
| 2026-04-13 03:11 | 44.46558 | -57.95904 | 35341 ft | 523 kts | 62° |
| 2026-04-13 03:11 | 44.48547 | -57.86086 | 35335 ft | 523 kts | 62° |
| 2026-04-13 03:12 | 44.50528 | -57.76257 | 35332 ft | 523 kts | 62° |
| 2026-04-13 03:12 | 44.52503 | -57.66423 | 35350 ft | 524 kts | 63° |
| 2026-04-13 03:13 | 44.54468 | -57.56572 | 35323 ft | 524 kts | 63° |
| 2026-04-13 03:13 | 44.56427 | -57.46704 | 35321 ft | 524 kts | 63° |
| 2026-04-13 03:14 | 44.58380 | -57.36832 | 35315 ft | 524 kts | 63° |
| 2026-04-13 03:14 | 44.60312 | -57.27020 | 35348 ft | 524 kts | 64° |
| 2026-04-13 03:15 | 44.62248 | -57.17127 | 35303 ft | 524 kts | 64° |
| 2026-04-13 03:15 | 44.64171 | -57.07226 | 35286 ft | 525 kts | 64° |
| 2026-04-13 03:16 | 44.66087 | -56.97320 | 35282 ft | 525 kts | 64° |
| 2026-04-13 03:16 | 44.67676 | -56.89072 | 35268 ft | 525 kts | 64° |
| 2026-04-13 03:17 | 44.69583 | -56.79154 | 35303 ft | 525 kts | 65° |
| 2026-04-13 03:17 | 44.71479 | -56.69222 | 35270 ft | 525 kts | 65° |
| 2026-04-13 03:18 | 44.73364 | -56.59277 | 35247 ft | 525 kts | 65° |
| 2026-04-13 03:18 | 44.75227 | -56.49400 | 35246 ft | 525 kts | 65° |
| 2026-04-13 03:19 | 44.77105 | -56.39411 | 35259 ft | 525 kts | 65° |
| 2026-04-13 03:19 | 44.78966 | -56.29453 | 35237 ft | 524 kts | 66° |
| 2026-04-13 03:20 | 44.80820 | -56.19470 | 35233 ft | 524 kts | 66° |
| 2026-04-13 03:20 | 44.82625 | -56.09732 | 35218 ft | 526 kts | 66° |
| 2026-04-13 03:21 | 44.84430 | -55.99889 | 35207 ft | 526 kts | 66° |
| 2026-04-13 03:21 | 44.86259 | -55.89900 | 35214 ft | 525 kts | 67° |
| 2026-04-13 03:22 | 44.88075 | -55.79907 | 35197 ft | 525 kts | 67° |
| 2026-04-13 03:22 | 44.89884 | -55.69903 | 35176 ft | 525 kts | 67° |
| 2026-04-13 03:23 | 44.91687 | -55.59883 | 35176 ft | 526 kts | 67° |
| 2026-04-13 03:23 | 44.93490 | -55.49863 | 35194 ft | 526 kts | 68° |
| 2026-04-13 03:24 | 44.95262 | -55.39892 | 35164 ft | 526 kts | 68° |
| 2026-04-13 03:24 | 44.97035 | -55.29853 | 35149 ft | 526 kts | 68° |
| 2026-04-13 03:25 | 44.98801 | -55.19807 | 35146 ft | 526 kts | 68° |
| 2026-04-13 03:25 | 45.00561 | -55.09750 | 35175 ft | 526 kts | 68° |
| 2026-04-13 03:26 | 45.02318 | -54.99686 | 35131 ft | 526 kts | 69° |
| 2026-04-13 03:26 | 45.04065 | -54.89610 | 35120 ft | 528 kts | 69° |
| 2026-04-13 03:27 | 45.05800 | -54.79511 | 35108 ft | 528 kts | 70° |
| 2026-04-13 03:27 | 45.07530 | -54.69385 | 35102 ft | 528 kts | 70° |
| 2026-04-13 03:28 | 45.09242 | -54.59337 | 35112 ft | 528 kts | 70° |
| 2026-04-13 03:28 | 45.10954 | -54.49212 | 35099 ft | 528 kts | 70° |
| 2026-04-13 03:29 | 45.12654 | -54.39087 | 35075 ft | 528 kts | 70° |
| 2026-04-13 03:29 | 45.14355 | -54.28937 | 35065 ft | 529 kts | 71° |
| 2026-04-13 03:30 | 45.16044 | -54.18767 | 35064 ft | 529 kts | 71° |
| 2026-04-13 03:30 | 45.17723 | -54.08591 | 35052 ft | 529 kts | 71° |
| 2026-04-13 03:31 | 45.19394 | -53.98410 | 35041 ft | 529 kts | 71° |
| 2026-04-13 03:31 | 45.21057 | -53.88223 | 35042 ft | 530 kts | 71° |
| 2026-04-13 03:32 | 45.22711 | -53.78028 | 35041 ft | 530 kts | 71° |
| 2026-04-13 03:32 | 45.24366 | -53.67826 | 35042 ft | 530 kts | 72° |
| 2026-04-13 03:33 | 45.25999 | -53.57615 | 35028 ft | 530 kts | 72° |
| 2026-04-13 03:33 | 45.27623 | -53.47396 | 35011 ft | 530 kts | 72° |
| 2026-04-13 03:34 | 45.29232 | -53.37227 | 34994 ft | 530 kts | 72° |
| 2026-04-13 03:34 | 45.30846 | -53.26979 | 35017 ft | 530 kts | 73° |
| 2026-04-13 03:35 | 45.32449 | -53.16736 | 34984 ft | 529 kts | 73° |
| 2026-04-13 03:35 | 45.34040 | -53.06497 | 34974 ft | 530 kts | 73° |
| 2026-04-13 03:36 | 45.35623 | -52.96238 | 34959 ft | 531 kts | 73° |
| 2026-04-13 03:36 | 45.37198 | -52.85962 | 34960 ft | 531 kts | 73° |
| 2026-04-13 03:37 | 45.38766 | -52.75697 | 34956 ft | 530 kts | 74° |
| 2026-04-13 03:37 | 45.40325 | -52.65388 | 34934 ft | 530 kts | 74° |
| 2026-04-13 03:38 | 45.41872 | -52.55101 | 34936 ft | 530 kts | 74° |
| 2026-04-13 03:38 | 45.43399 | -52.44895 | 34920 ft | 531 kts | 75° |
| 2026-04-13 03:39 | 45.44936 | -52.34582 | 34940 ft | 532 kts | 75° |
| 2026-04-13 03:39 | 45.46457 | -52.24256 | 34914 ft | 531 kts | 75° |
| 2026-04-13 03:40 | 45.47970 | -52.13917 | 34915 ft | 531 kts | 75° |
| 2026-04-13 03:40 | 45.49510 | -52.03609 | 34901 ft | 531 kts | 73° |
| 2026-04-13 03:41 | 45.51321 | -51.94796 | 34890 ft | 528 kts | 67° |
| 2026-04-13 03:41 | 45.53836 | -51.85030 | 34887 ft | 527 kts | 66° |
| 2026-04-13 03:42 | 45.55146 | -51.80033 | 35091 ft | 529 kts | 66° |
| 2026-04-13 03:42 | 45.56416 | -51.75163 | 35472 ft | 527 kts | 66° |
| 2026-04-13 03:42 | 45.57686 | -51.70268 | 35843 ft | 525 kts | 66° |
| 2026-04-13 03:43 | 45.60213 | -51.60474 | 36308 ft | 526 kts | 66° |
| 2026-04-13 03:43 | 45.61475 | -51.55557 | 36558 ft | 526 kts | 66° |
| 2026-04-13 03:43 | 45.62737 | -51.50638 | 36769 ft | 526 kts | 67° |
| 2026-04-13 03:44 | 45.65246 | -51.40799 | 36846 ft | 527 kts | 67° |
| 2026-04-13 03:44 | 45.67750 | -51.30931 | 36839 ft | 527 kts | 67° |
| 2026-04-13 03:45 | 45.70244 | -51.21061 | 36847 ft | 527 kts | 67° |
| 2026-04-13 03:45 | 45.72731 | -51.11194 | 36842 ft | 526 kts | 68° |
| 2026-04-13 03:46 | 45.75208 | -51.01312 | 36825 ft | 526 kts | 68° |
| 2026-04-13 03:46 | 45.77659 | -50.91492 | 36803 ft | 527 kts | 68° |
| 2026-04-13 03:47 | 45.80126 | -50.81571 | 36800 ft | 528 kts | 68° |
| 2026-04-13 03:47 | 45.82587 | -50.71634 | 36816 ft | 528 kts | 69° |
| 2026-04-13 03:48 | 45.85034 | -50.61691 | 36799 ft | 528 kts | 69° |
| 2026-04-13 03:48 | 45.87474 | -50.51739 | 36783 ft | 528 kts | 69° |
| 2026-04-13 03:49 | 45.89908 | -50.41772 | 36788 ft | 528 kts | 69° |
| 2026-04-13 03:49 | 45.92318 | -50.31871 | 36782 ft | 528 kts | 69° |
| 2026-04-13 03:50 | 45.94734 | -50.21885 | 36767 ft | 528 kts | 69° |
| 2026-04-13 03:50 | 45.97140 | -50.11903 | 36758 ft | 528 kts | 69° |
| 2026-04-13 03:51 | 45.99541 | -50.01907 | 36742 ft | 529 kts | 70° |
| 2026-04-13 03:51 | 46.02000 | -49.91907 | 36736 ft | 529 kts | 69° |
| 2026-04-13 03:52 | 46.05770 | -49.76945 | 36738 ft | 529 kts | 69° |
| 2026-04-13 03:52 | 46.08267 | -49.66951 | 36738 ft | 529 kts | 69° |
| 2026-04-13 03:53 | 46.10756 | -49.56945 | 36728 ft | 529 kts | 69° |
| 2026-04-13 03:53 | 46.13228 | -49.46936 | 36707 ft | 529 kts | 69° |
| 2026-04-13 03:54 | 46.15691 | -49.36919 | 36711 ft | 529 kts | 69° |
| 2026-04-13 03:54 | 46.18129 | -49.26961 | 36689 ft | 529 kts | 70° |
| 2026-04-13 03:55 | 46.20583 | -49.16916 | 36681 ft | 530 kts | 70° |
| 2026-04-13 03:55 | 46.23031 | -49.06831 | 36673 ft | 531 kts | 70° |
| 2026-04-13 03:56 | 46.25466 | -48.96738 | 36666 ft | 531 kts | 70° |
| 2026-04-13 03:56 | 46.27902 | -48.86604 | 36671 ft | 531 kts | 70° |
| 2026-04-13 03:57 | 46.30167 | -48.77160 | 36658 ft | 532 kts | 71° |
| 2026-04-13 03:57 | 46.32582 | -48.67025 | 36641 ft | 532 kts | 71° |
| 2026-04-13 03:58 | 46.34986 | -48.56888 | 36644 ft | 532 kts | 71° |
| 2026-04-13 03:58 | 46.37368 | -48.46804 | 36634 ft | 532 kts | 71° |
| 2026-04-13 03:59 | 46.39757 | -48.36655 | 36624 ft | 532 kts | 71° |
| 2026-04-13 03:59 | 46.42135 | -48.26491 | 36589 ft | 532 kts | 72° |
| 2026-04-13 04:00 | 46.44515 | -48.16279 | 36609 ft | 535 kts | 72° |
| 2026-04-13 04:00 | 46.46890 | -48.06028 | 36603 ft | 535 kts | 72° |
| 2026-04-13 04:01 | 46.49260 | -47.95767 | 36593 ft | 536 kts | 72° |
| 2026-04-13 04:01 | 46.51618 | -47.85490 | 36576 ft | 536 kts | 72° |
| 2026-04-13 04:02 | 46.53968 | -47.75207 | 36585 ft | 536 kts | 72° |
| 2026-04-13 04:02 | 46.56309 | -47.64917 | 36574 ft | 536 kts | 73° |
| 2026-04-13 04:03 | 46.58250 | -47.56356 | 36563 ft | 536 kts | 73° |
| 2026-04-13 04:03 | 46.60575 | -47.46037 | 36566 ft | 536 kts | 73° |
| 2026-04-13 04:04 | 46.62890 | -47.35718 | 36543 ft | 536 kts | 73° |
| 2026-04-13 04:04 | 46.65203 | -47.25372 | 36530 ft | 538 kts | 73° |
| 2026-04-13 04:05 | 46.67512 | -47.14988 | 36543 ft | 538 kts | 74° |
| 2026-04-13 04:05 | 46.69809 | -47.04586 | 36529 ft | 539 kts | 74° |
| 2026-04-13 04:06 | 46.72097 | -46.94180 | 36534 ft | 538 kts | 74° |
| 2026-04-13 04:06 | 46.74379 | -46.83758 | 36529 ft | 538 kts | 74° |
| 2026-04-13 04:07 | 46.76635 | -46.73411 | 36520 ft | 538 kts | 74° |
| 2026-04-13 04:07 | 46.78893 | -46.62990 | 36516 ft | 538 kts | 75° |
| 2026-04-13 04:08 | 46.81141 | -46.52562 | 36515 ft | 538 kts | 75° |
| 2026-04-13 04:08 | 46.83382 | -46.42123 | 36510 ft | 538 kts | 75° |
| 2026-04-13 04:09 | 46.85621 | -46.31657 | 36489 ft | 540 kts | 75° |
| 2026-04-13 04:09 | 46.87852 | -46.21140 | 36499 ft | 541 kts | 75° |
| 2026-04-13 04:10 | 46.90071 | -46.10628 | 36490 ft | 541 kts | 76° |
| 2026-04-13 04:10 | 46.92285 | -46.00092 | 36489 ft | 541 kts | 76° |
| 2026-04-13 04:11 | 46.94490 | -45.89550 | 36488 ft | 541 kts | 76° |
| 2026-04-13 04:11 | 46.96684 | -45.79004 | 36494 ft | 541 kts | 76° |
| 2026-04-13 04:12 | 46.98869 | -45.68444 | 36491 ft | 541 kts | 76° |
| 2026-04-13 04:12 | 47.01033 | -45.57944 | 36484 ft | 542 kts | 76° |
| 2026-04-13 04:13 | 47.03203 | -45.47343 | 36485 ft | 542 kts | 76° |
| 2026-04-13 04:13 | 47.05372 | -45.36694 | 36473 ft | 545 kts | 76° |
| 2026-04-13 04:14 | 47.07536 | -45.26005 | 36482 ft | 546 kts | 77° |
| 2026-04-13 04:14 | 47.09695 | -45.15294 | 36476 ft | 547 kts | 77° |
| 2026-04-13 04:15 | 47.11847 | -45.04554 | 36488 ft | 547 kts | 77° |
| 2026-04-13 04:15 | 47.13989 | -44.93805 | 36490 ft | 547 kts | 77° |
| 2026-04-13 04:16 | 47.16117 | -44.83066 | 36485 ft | 547 kts | 77° |
| 2026-04-13 04:16 | 47.18225 | -44.72381 | 36483 ft | 546 kts | 77° |
| 2026-04-13 04:17 | 47.20331 | -44.61637 | 36491 ft | 546 kts | 77° |
| 2026-04-13 04:17 | 47.22425 | -44.50890 | 36492 ft | 546 kts | 77° |
| 2026-04-13 04:18 | 47.24513 | -44.40129 | 36470 ft | 546 kts | 78° |
| 2026-04-13 04:18 | 47.26591 | -44.29361 | 36482 ft | 545 kts | 78° |
| 2026-04-13 04:19 | 47.28650 | -44.18607 | 36493 ft | 544 kts | 78° |
| 2026-04-13 04:19 | 47.30696 | -44.07863 | 36493 ft | 544 kts | 78° |
| 2026-04-13 04:20 | 47.32720 | -43.97176 | 36492 ft | 544 kts | 78° |
| 2026-04-13 04:20 | 47.34750 | -43.86429 | 36497 ft | 542 kts | 79° |
| 2026-04-13 04:21 | 47.36760 | -43.75692 | 36498 ft | 542 kts | 79° |
| 2026-04-13 04:21 | 47.38760 | -43.64946 | 36498 ft | 542 kts | 79° |
| 2026-04-13 04:22 | 47.40750 | -43.54199 | 36493 ft | 542 kts | 79° |
| 2026-04-13 04:22 | 47.42737 | -43.43442 | 36445 ft | 543 kts | 80° |
| 2026-04-13 04:23 | 47.44712 | -43.32632 | 36499 ft | 544 kts | 80° |
| 2026-04-13 04:23 | 47.46679 | -43.21809 | 36510 ft | 544 kts | 80° |
| 2026-04-13 04:24 | 47.48637 | -43.10987 | 36490 ft | 544 kts | 80° |
| 2026-04-13 04:24 | 47.50585 | -43.00161 | 36499 ft | 544 kts | 80° |
| 2026-04-13 04:25 | 47.52521 | -42.89327 | 36508 ft | 544 kts | 80° |
| 2026-04-13 04:25 | 47.54433 | -42.78563 | 36507 ft | 543 kts | 81° |
| 2026-04-13 04:26 | 47.56348 | -42.67722 | 36501 ft | 544 kts | 81° |
| 2026-04-13 04:26 | 47.58253 | -42.56872 | 36516 ft | 544 kts | 81° |
| 2026-04-13 04:27 | 47.60148 | -42.46009 | 36518 ft | 544 kts | 81° |
| 2026-04-13 04:27 | 47.62033 | -42.35133 | 36518 ft | 544 kts | 81° |
| 2026-04-13 04:28 | 47.63909 | -42.24253 | 36510 ft | 544 kts | 81° |
| 2026-04-13 04:28 | 47.65773 | -42.13370 | 36523 ft | 544 kts | 81° |
| 2026-04-13 04:29 | 47.67626 | -42.02478 | 36525 ft | 544 kts | 81° |
| 2026-04-13 04:29 | 47.69470 | -41.91579 | 36526 ft | 544 kts | 81° |
| 2026-04-13 04:30 | 47.71302 | -41.80680 | 36532 ft | 543 kts | 81° |
| 2026-04-13 04:30 | 47.73124 | -41.69766 | 36532 ft | 543 kts | 82° |
| 2026-04-13 04:31 | 47.74922 | -41.58928 | 36531 ft | 543 kts | 82° |
| 2026-04-13 04:31 | 47.76723 | -41.48008 | 36492 ft | 543 kts | 82° |
| 2026-04-13 04:32 | 47.78519 | -41.37040 | 36573 ft | 545 kts | 82° |
| 2026-04-13 04:32 | 47.80302 | -41.26097 | 36543 ft | 543 kts | 82° |
| 2026-04-13 04:33 | 47.82072 | -41.15150 | 36537 ft | 542 kts | 82° |
| 2026-04-13 04:33 | 47.83827 | -41.04221 | 36539 ft | 542 kts | 82° |
| 2026-04-13 04:34 | 47.85573 | -40.93279 | 36523 ft | 542 kts | 82° |
| 2026-04-13 04:34 | 47.87309 | -40.82331 | 36532 ft | 542 kts | 82° |
| 2026-04-13 04:35 | 47.88742 | -40.73234 | 36534 ft | 542 kts | 82° |
| 2026-04-13 04:35 | 47.90736 | -40.60494 | 36540 ft | 542 kts | 83° |
| 2026-04-13 04:36 | 47.92440 | -40.49531 | 36519 ft | 541 kts | 83° |
| 2026-04-13 04:36 | 47.94133 | -40.38578 | 36516 ft | 542 kts | 83° |
| 2026-04-13 04:37 | 47.95817 | -40.27580 | 36530 ft | 543 kts | 83° |
| 2026-04-13 04:37 | 47.97493 | -40.16572 | 36535 ft | 543 kts | 83° |
| 2026-04-13 04:38 | 47.99148 | -40.05641 | 36518 ft | 543 kts | 82° |
| 2026-04-13 04:38 | 48.01285 | -39.94708 | 36528 ft | 551 kts | 75° |
| 2026-04-13 04:39 | 48.03961 | -39.83963 | 36532 ft | 551 kts | 74° |
| 2026-04-13 04:39 | 48.06681 | -39.73241 | 36537 ft | 551 kts | 74° |
| 2026-04-13 04:40 | 48.09376 | -39.62490 | 36520 ft | 551 kts | 74° |
| 2026-04-13 04:40 | 48.12051 | -39.51719 | 36527 ft | 551 kts | 74° |
| 2026-04-13 04:41 | 48.14696 | -39.41009 | 36529 ft | 551 kts | 75° |
| 2026-04-13 04:41 | 48.17345 | -39.30222 | 36526 ft | 551 kts | 75° |
| 2026-04-13 04:42 | 48.19981 | -39.19432 | 36514 ft | 550 kts | 75° |
| 2026-04-13 04:43 | 48.25222 | -38.97829 | 36513 ft | 551 kts | 75° |
| 2026-04-13 04:43 | 48.27833 | -38.86992 | 36498 ft | 551 kts | 75° |
| 2026-04-13 04:44 | 48.30440 | -38.76116 | 36515 ft | 553 kts | 75° |
| 2026-04-13 04:44 | 48.33019 | -38.65300 | 36513 ft | 553 kts | 75° |
| 2026-04-13 04:45 | 48.35606 | -38.54400 | 36513 ft | 553 kts | 75° |
| 2026-04-13 04:45 | 48.38182 | -38.43490 | 36500 ft | 553 kts | 75° |
| 2026-04-13 04:46 | 48.40333 | -38.34336 | 36512 ft | 553 kts | 75° |
| 2026-04-13 04:46 | 48.43304 | -38.21629 | 36512 ft | 553 kts | 75° |
| 2026-04-13 04:47 | 48.45851 | -38.10677 | 36513 ft | 553 kts | 75° |
| 2026-04-13 04:47 | 48.48386 | -37.99718 | 36500 ft | 553 kts | 76° |
| 2026-04-13 04:48 | 48.50913 | -37.88741 | 36508 ft | 553 kts | 76° |
| 2026-04-13 04:48 | 48.53427 | -37.77769 | 36500 ft | 552 kts | 76° |
| 2026-04-13 04:49 | 48.55508 | -37.68640 | 36512 ft | 552 kts | 76° |
| 2026-04-13 04:49 | 48.58403 | -37.55873 | 36507 ft | 552 kts | 76° |
| 2026-04-13 04:50 | 48.60884 | -37.44871 | 36511 ft | 552 kts | 76° |
| 2026-04-13 04:50 | 48.62937 | -37.35722 | 36454 ft | 552 kts | 76° |
| 2026-04-13 04:51 | 48.65404 | -37.24669 | 36487 ft | 555 kts | 76° |
| 2026-04-13 04:51 | 48.67896 | -37.13449 | 36501 ft | 556 kts | 76° |
| 2026-04-13 04:52 | 48.70355 | -37.02328 | 36499 ft | 556 kts | 76° |
| 2026-04-13 04:52 | 48.72801 | -36.91201 | 36504 ft | 556 kts | 76° |
| 2026-04-13 04:53 | 48.75235 | -36.80064 | 36494 ft | 556 kts | 76° |
| 2026-04-13 04:53 | 48.77663 | -36.68898 | 36503 ft | 557 kts | 76° |
| 2026-04-13 04:54 | 48.80080 | -36.57727 | 36496 ft | 557 kts | 77° |
| 2026-04-13 04:54 | 48.82473 | -36.46605 | 36471 ft | 556 kts | 77° |
| 2026-04-13 04:55 | 48.84868 | -36.35403 | 36488 ft | 558 kts | 77° |
| 2026-04-13 04:55 | 48.87257 | -36.24178 | 36498 ft | 558 kts | 77° |
| 2026-04-13 04:56 | 48.89637 | -36.12931 | 36496 ft | 558 kts | 77° |
| 2026-04-13 04:56 | 48.92003 | -36.01682 | 36485 ft | 558 kts | 77° |
| 2026-04-13 04:57 | 48.94363 | -35.90402 | 36491 ft | 559 kts | 77° |
| 2026-04-13 04:57 | 48.96717 | -35.79091 | 36490 ft | 559 kts | 77° |
| 2026-04-13 04:58 | 48.99043 | -35.67852 | 36490 ft | 559 kts | 77° |
| 2026-04-13 04:58 | 49.01371 | -35.56522 | 36456 ft | 561 kts | 77° |
| 2026-04-13 04:59 | 49.03701 | -35.45127 | 36483 ft | 563 kts | 77° |
| 2026-04-13 04:59 | 49.06032 | -35.33680 | 36491 ft | 563 kts | 77° |
| 2026-04-13 05:00 | 49.08346 | -35.22243 | 36486 ft | 563 kts | 77° |
| 2026-04-13 05:00 | 49.10650 | -35.10767 | 36484 ft | 565 kts | 77° |
| 2026-04-13 05:01 | 49.12947 | -34.99279 | 36483 ft | 565 kts | 77° |
| 2026-04-13 05:01 | 49.15235 | -34.87770 | 36485 ft | 565 kts | 77° |
| 2026-04-13 05:02 | 49.17492 | -34.76333 | 36480 ft | 566 kts | 77° |
| 2026-04-13 05:02 | 49.19761 | -34.64772 | 36481 ft | 567 kts | 77° |
| 2026-04-13 05:03 | 49.22019 | -34.53210 | 36491 ft | 567 kts | 77° |
| 2026-04-13 05:03 | 49.24268 | -34.41620 | 36479 ft | 567 kts | 77° |
| 2026-04-13 05:04 | 49.26501 | -34.30022 | 36472 ft | 567 kts | 77° |
| 2026-04-13 05:04 | 49.28729 | -34.18403 | 36479 ft | 568 kts | 77° |
| 2026-04-13 05:05 | 49.30944 | -34.06777 | 36485 ft | 567 kts | 77° |
| 2026-04-13 05:05 | 49.33148 | -33.95132 | 36463 ft | 567 kts | 77° |
| 2026-04-13 05:06 | 49.35337 | -33.83478 | 36478 ft | 569 kts | 77° |
| 2026-04-13 05:06 | 49.37526 | -33.71781 | 36447 ft | 573 kts | 78° |
| 2026-04-13 05:07 | 49.39708 | -33.60035 | 36468 ft | 576 kts | 78° |
| 2026-04-13 05:07 | 49.41896 | -33.48181 | 36472 ft | 576 kts | 78° |
| 2026-04-13 05:08 | 49.44074 | -33.36311 | 36477 ft | 576 kts | 78° |
| 2026-04-13 05:08 | 49.46237 | -33.24437 | 36480 ft | 576 kts | 78° |
| 2026-04-13 05:09 | 49.48390 | -33.12544 | 36482 ft | 576 kts | 78° |
| 2026-04-13 05:09 | 49.50526 | -33.00637 | 36470 ft | 577 kts | 78° |
| 2026-04-13 05:10 | 49.52659 | -32.88714 | 36476 ft | 577 kts | 78° |
| 2026-04-13 05:10 | 49.54778 | -32.76784 | 36479 ft | 577 kts | 78° |
| 2026-04-13 05:11 | 49.56884 | -32.64834 | 36461 ft | 577 kts | 78° |
| 2026-04-13 05:11 | 49.58980 | -32.52835 | 36468 ft | 580 kts | 78° |
| 2026-04-13 05:12 | 49.61080 | -32.40783 | 36469 ft | 580 kts | 78° |
| 2026-04-13 05:12 | 49.63163 | -32.28732 | 36477 ft | 580 kts | 78° |
| 2026-04-13 05:13 | 49.65228 | -32.16667 | 36473 ft | 580 kts | 78° |
| 2026-04-13 05:13 | 49.67272 | -32.04673 | 36467 ft | 581 kts | 78° |
| 2026-04-13 05:14 | 49.69322 | -31.92578 | 36469 ft | 581 kts | 78° |
| 2026-04-13 05:14 | 49.71362 | -31.80422 | 36454 ft | 587 kts | 78° |
| 2026-04-13 05:15 | 49.73393 | -31.68215 | 36459 ft | 588 kts | 77° |
| 2026-04-13 05:15 | 49.75431 | -31.55939 | 36460 ft | 588 kts | 77° |
| 2026-04-13 05:16 | 49.77453 | -31.43660 | 36459 ft | 588 kts | 78° |
| 2026-04-13 05:16 | 49.79456 | -31.31370 | 36455 ft | 588 kts | 77° |
| 2026-04-13 05:17 | 49.81451 | -31.19048 | 36456 ft | 589 kts | 77° |
| 2026-04-13 05:17 | 49.83436 | -31.06725 | 36464 ft | 589 kts | 77° |
| 2026-04-13 05:18 | 49.85407 | -30.94393 | 36464 ft | 589 kts | 78° |
| 2026-04-13 05:18 | 49.87356 | -30.82050 | 36460 ft | 588 kts | 77° |
| 2026-04-13 05:19 | 49.89298 | -30.69720 | 36457 ft | 588 kts | 77° |
| 2026-04-13 05:19 | 49.91227 | -30.57381 | 36454 ft | 588 kts | 77° |
| 2026-04-13 05:20 | 49.93140 | -30.45030 | 36457 ft | 587 kts | 77° |
| 2026-04-13 05:20 | 49.95033 | -30.32694 | 36464 ft | 586 kts | 77° |
| 2026-04-13 05:21 | 49.96903 | -30.20460 | 36463 ft | 586 kts | 77° |
| 2026-04-13 05:21 | 49.98773 | -30.08116 | 36460 ft | 586 kts | 77° |
| 2026-04-13 05:22 | 50.00612 | -29.95758 | 36445 ft | 586 kts | 77° |
| 2026-04-13 05:22 | 50.02406 | -29.83341 | 36460 ft | 588 kts | 77° |
| 2026-04-13 05:23 | 50.04192 | -29.70891 | 36458 ft | 588 kts | 77° |
| 2026-04-13 05:23 | 50.05955 | -29.58501 | 36465 ft | 588 kts | 77° |
| 2026-04-13 05:24 | 50.07705 | -29.46071 | 36462 ft | 587 kts | 77° |
| 2026-04-13 05:24 | 50.09450 | -29.33631 | 36459 ft | 586 kts | 77° |
| 2026-04-13 05:25 | 50.11180 | -29.21196 | 36460 ft | 586 kts | 77° |
| 2026-04-13 05:25 | 50.12895 | -29.08743 | 36460 ft | 586 kts | 77° |
| 2026-04-13 05:26 | 50.14597 | -28.96286 | 36459 ft | 587 kts | 77° |
| 2026-04-13 05:26 | 50.16284 | -28.83817 | 36462 ft | 587 kts | 77° |
| 2026-04-13 05:27 | 50.17959 | -28.71341 | 36463 ft | 587 kts | 78° |
| 2026-04-13 05:27 | 50.19611 | -28.58887 | 36464 ft | 582 kts | 77° |
| 2026-04-13 05:28 | 50.21237 | -28.46573 | 36460 ft | 582 kts | 77° |
| 2026-04-13 05:28 | 50.22863 | -28.34155 | 36461 ft | 582 kts | 77° |
| 2026-04-13 05:29 | 50.24471 | -28.21748 | 36460 ft | 582 kts | 78° |
| 2026-04-13 05:29 | 50.26056 | -28.09367 | 36464 ft | 578 kts | 77° |
| 2026-04-13 05:30 | 50.27631 | -27.96984 | 36466 ft | 582 kts | 77° |
| 2026-04-13 05:30 | 50.29205 | -27.84541 | 36469 ft | 582 kts | 77° |
| 2026-04-13 05:31 | 50.30762 | -27.72087 | 36480 ft | 581 kts | 77° |
| 2026-04-13 05:31 | 50.32289 | -27.59743 | 36473 ft | 579 kts | 77° |
| 2026-04-13 05:32 | 50.33813 | -27.47342 | 36471 ft | 579 kts | 77° |
| 2026-04-13 05:32 | 50.35325 | -27.34924 | 36469 ft | 579 kts | 77° |
| 2026-04-13 05:33 | 50.36819 | -27.22494 | 36476 ft | 577 kts | 77° |
| 2026-04-13 05:33 | 50.38294 | -27.10127 | 36472 ft | 576 kts | 77° |
| 2026-04-13 05:34 | 50.39757 | -26.97758 | 36465 ft | 576 kts | 77° |
| 2026-04-13 05:34 | 50.41199 | -26.85450 | 36465 ft | 576 kts | 77° |
| 2026-04-13 05:35 | 50.42629 | -26.73089 | 36469 ft | 572 kts | 77° |
| 2026-04-13 05:35 | 50.44041 | -26.60789 | 36468 ft | 572 kts | 77° |
| 2026-04-13 05:36 | 50.45442 | -26.48480 | 36467 ft | 572 kts | 77° |
| 2026-04-13 05:36 | 50.46828 | -26.36166 | 36489 ft | 572 kts | 77° |
| 2026-04-13 05:37 | 50.48184 | -26.23972 | 36472 ft | 568 kts | 77° |
| 2026-04-13 05:37 | 50.49535 | -26.11731 | 36467 ft | 568 kts | 78° |
| 2026-04-13 05:38 | 50.50876 | -25.99464 | 36468 ft | 568 kts | 78° |
| 2026-04-13 05:38 | 50.51978 | -25.89277 | 36475 ft | 568 kts | 78° |
| 2026-04-13 05:39 | 50.53285 | -25.77053 | 36473 ft | 566 kts | 78° |
| 2026-04-13 05:39 | 50.54584 | -25.64820 | 36473 ft | 566 kts | 78° |
| 2026-04-13 05:40 | 50.55869 | -25.52587 | 36475 ft | 566 kts | 78° |
| 2026-04-13 05:40 | 50.57139 | -25.40357 | 36495 ft | 564 kts | 78° |
| 2026-04-13 05:41 | 50.58388 | -25.28190 | 36480 ft | 561 kts | 78° |
| 2026-04-13 05:41 | 50.59623 | -25.16047 | 36479 ft | 561 kts | 78° |
| 2026-04-13 05:42 | 50.60844 | -25.03906 | 36483 ft | 561 kts | 78° |
| 2026-04-13 05:43 | 50.62640 | -24.85782 | 36481 ft | 558 kts | 78° |
| 2026-04-13 05:43 | 50.63827 | -24.73661 | 36482 ft | 558 kts | 78° |
| 2026-04-13 05:44 | 50.64999 | -24.61556 | 36476 ft | 558 kts | 78° |
| 2026-04-13 05:44 | 50.66158 | -24.49448 | 36486 ft | 558 kts | 79° |
| 2026-04-13 05:45 | 50.67305 | -24.37318 | 36489 ft | 558 kts | 79° |
| 2026-04-13 05:45 | 50.68440 | -24.25186 | 36454 ft | 558 kts | 79° |
| 2026-04-13 05:46 | 50.69561 | -24.13024 | 36485 ft | 561 kts | 79° |
| 2026-04-13 05:46 | 50.70675 | -24.00841 | 36512 ft | 559 kts | 79° |
| 2026-04-13 05:47 | 50.71770 | -23.88711 | 36496 ft | 557 kts | 79° |
| 2026-04-13 05:47 | 50.72845 | -23.76667 | 36495 ft | 556 kts | 79° |
| 2026-04-13 05:48 | 50.73914 | -23.64539 | 36516 ft | 557 kts | 79° |
| 2026-04-13 05:48 | 50.74970 | -23.52409 | 36534 ft | 555 kts | 79° |
| 2026-04-13 05:49 | 50.76006 | -23.40340 | 36522 ft | 553 kts | 79° |
| 2026-04-13 05:49 | 50.77030 | -23.28277 | 36516 ft | 553 kts | 79° |
| 2026-04-13 05:50 | 50.78042 | -23.16211 | 36524 ft | 553 kts | 79° |
| 2026-04-13 05:50 | 50.79041 | -23.04141 | 36555 ft | 552 kts | 79° |
| 2026-04-13 05:51 | 50.80018 | -22.92180 | 36542 ft | 551 kts | 79° |
| 2026-04-13 05:51 | 50.80989 | -22.80138 | 36545 ft | 551 kts | 80° |
| 2026-04-13 05:52 | 50.81948 | -22.68093 | 36555 ft | 551 kts | 80° |
| 2026-04-13 05:52 | 50.82894 | -22.56037 | 36562 ft | 550 kts | 80° |
| 2026-04-13 05:53 | 50.83825 | -22.44009 | 36560 ft | 549 kts | 80° |
| 2026-04-13 05:53 | 50.84743 | -22.31987 | 36568 ft | 549 kts | 80° |
| 2026-04-13 05:54 | 50.85650 | -22.19930 | 36552 ft | 550 kts | 80° |
| 2026-04-13 05:54 | 50.86541 | -22.07962 | 36600 ft | 549 kts | 80° |
| 2026-04-13 05:55 | 50.87421 | -21.95939 | 36583 ft | 548 kts | 80° |
| 2026-04-13 05:55 | 50.88288 | -21.83929 | 36585 ft | 548 kts | 81° |
| 2026-04-13 05:56 | 50.89142 | -21.71917 | 36600 ft | 548 kts | 81° |
| 2026-04-13 05:56 | 50.89984 | -21.59901 | 36604 ft | 547 kts | 81° |
| 2026-04-13 05:57 | 50.90811 | -21.47916 | 36613 ft | 546 kts | 81° |
| 2026-04-13 05:57 | 50.91626 | -21.35928 | 36619 ft | 546 kts | 81° |
| 2026-04-13 05:58 | 50.92429 | -21.23934 | 36609 ft | 546 kts | 81° |
| 2026-04-13 05:58 | 50.93219 | -21.11935 | 36642 ft | 545 kts | 81° |
| 2026-04-13 05:59 | 50.93995 | -20.99961 | 36623 ft | 545 kts | 81° |
| 2026-04-13 05:59 | 50.94754 | -20.88060 | 36633 ft | 545 kts | 81° |
| 2026-04-13 06:00 | 50.95507 | -20.76068 | 36643 ft | 545 kts | 81° |
| 2026-04-13 06:00 | 50.96246 | -20.64078 | 36658 ft | 544 kts | 81° |
| 2026-04-13 06:01 | 50.96973 | -20.52114 | 36664 ft | 544 kts | 82° |
| 2026-04-13 06:01 | 50.97683 | -20.40220 | 36666 ft | 544 kts | 82° |
| 2026-04-13 06:02 | 50.98386 | -20.28235 | 36639 ft | 544 kts | 82° |
| 2026-04-13 06:02 | 50.99075 | -20.16264 | 36673 ft | 543 kts | 82° |
| 2026-04-13 06:03 | 50.99749 | -20.04323 | 36671 ft | 542 kts | 82° |
| 2026-04-13 06:03 | 51.00180 | -19.92330 | 36677 ft | 544 kts | 85° |
| 2026-04-13 06:04 | 51.00411 | -19.80306 | 36682 ft | 544 kts | 86° |
| 2026-04-13 06:04 | 51.00626 | -19.68286 | 36685 ft | 544 kts | 86° |
| 2026-04-13 06:05 | 51.00839 | -19.56255 | 36695 ft | 544 kts | 86° |
| 2026-04-13 06:05 | 51.01044 | -19.44214 | 36692 ft | 544 kts | 86° |
| 2026-04-13 06:06 | 51.01237 | -19.32183 | 36690 ft | 544 kts | 86° |
| 2026-04-13 06:06 | 51.01417 | -19.20242 | 36712 ft | 544 kts | 86° |
| 2026-04-13 06:07 | 51.01585 | -19.08212 | 36695 ft | 543 kts | 86° |
| 2026-04-13 06:07 | 51.01742 | -18.96190 | 36697 ft | 543 kts | 86° |
| 2026-04-13 06:08 | 51.01886 | -18.84169 | 36696 ft | 543 kts | 86° |
| 2026-04-13 06:08 | 51.02017 | -18.72140 | 36730 ft | 543 kts | 86° |
| 2026-04-13 06:09 | 51.02135 | -18.60135 | 36714 ft | 543 kts | 86° |
| 2026-04-13 06:09 | 51.02241 | -18.48196 | 36718 ft | 543 kts | 86° |
| 2026-04-13 06:10 | 51.02337 | -18.36195 | 36713 ft | 543 kts | 86° |
| 2026-04-13 06:10 | 51.02419 | -18.24186 | 36753 ft | 543 kts | 86° |
| 2026-04-13 06:11 | 51.02489 | -18.12184 | 36729 ft | 541 kts | 87° |
| 2026-04-13 06:11 | 51.02546 | -18.00213 | 36731 ft | 541 kts | 87° |
| 2026-04-13 06:12 | 51.02592 | -17.88220 | 36727 ft | 541 kts | 87° |
| 2026-04-13 06:12 | 51.02625 | -17.76240 | 36739 ft | 541 kts | 87° |
| 2026-04-13 06:13 | 51.02645 | -17.64278 | 36746 ft | 540 kts | 87° |
| 2026-04-13 06:13 | 51.02654 | -17.52330 | 36742 ft | 540 kts | 87° |
| 2026-04-13 06:14 | 51.02650 | -17.40380 | 36749 ft | 540 kts | 88° |
| 2026-04-13 06:14 | 51.02623 | -17.22547 | 36777 ft | 539 kts | 88° |
| 2026-04-13 06:15 | 51.02588 | -17.10617 | 36755 ft | 539 kts | 88° |
| 2026-04-13 06:15 | 51.02541 | -16.98711 | 36750 ft | 539 kts | 88° |
| 2026-04-13 06:16 | 51.02484 | -16.86787 | 36760 ft | 539 kts | 88° |
| 2026-04-13 06:16 | 51.02414 | -16.74857 | 36785 ft | 539 kts | 88° |
| 2026-04-13 06:17 | 51.02331 | -16.63011 | 36772 ft | 538 kts | 88° |
| 2026-04-13 06:17 | 51.02237 | -16.51109 | 36770 ft | 538 kts | 88° |
| 2026-04-13 06:18 | 51.02131 | -16.39205 | 36774 ft | 538 kts | 88° |
| 2026-04-13 06:18 | 51.02013 | -16.27297 | 36774 ft | 538 kts | 88° |
| 2026-04-13 06:19 | 51.01881 | -16.15401 | 36781 ft | 537 kts | 88° |
| 2026-04-13 06:19 | 51.01739 | -16.03524 | 36786 ft | 536 kts | 88° |
| 2026-04-13 06:20 | 51.01586 | -15.91724 | 36783 ft | 537 kts | 89° |
| 2026-04-13 06:20 | 51.01420 | -15.79844 | 36791 ft | 537 kts | 89° |
| 2026-04-13 06:21 | 51.01243 | -15.67978 | 36801 ft | 535 kts | 89° |
| 2026-04-13 06:21 | 51.01053 | -15.56144 | 36794 ft | 535 kts | 89° |
| 2026-04-13 06:22 | 51.00850 | -15.44311 | 36788 ft | 535 kts | 89° |
| 2026-04-13 06:22 | 51.00637 | -15.32475 | 36797 ft | 535 kts | 89° |
| 2026-04-13 06:23 | 51.00413 | -15.20647 | 36814 ft | 535 kts | 89° |
| 2026-04-13 06:23 | 51.00178 | -15.08896 | 36806 ft | 535 kts | 89° |
| 2026-04-13 06:24 | 50.99992 | -14.97061 | 36808 ft | 534 kts | 87° |
| 2026-04-13 06:24 | 51.00023 | -14.85246 | 36813 ft | 534 kts | 86° |
| 2026-04-13 06:25 | 51.00065 | -14.73441 | 36816 ft | 534 kts | 87° |
| 2026-04-13 06:25 | 51.00085 | -14.63618 | 36816 ft | 534 kts | 87° |
| 2026-04-13 06:26 | 51.00095 | -14.49872 | 36816 ft | 534 kts | 87° |
| 2026-04-13 06:26 | 51.00089 | -14.38061 | 36818 ft | 534 kts | 87° |
| 2026-04-13 06:27 | 51.00076 | -14.28152 | 36833 ft | 534 kts | 87° |
| 2026-04-13 06:27 | 51.00049 | -14.16419 | 36824 ft | 534 kts | 87° |
| 2026-04-13 06:28 | 51.00009 | -14.04607 | 36815 ft | 534 kts | 88° |
| 2026-04-13 06:28 | 51.00147 | -13.92779 | 36830 ft | 533 kts | 85° |
| 2026-04-13 06:29 | 51.00440 | -13.80995 | 36854 ft | 533 kts | 84° |
| 2026-04-13 06:29 | 51.00708 | -13.69997 | 36835 ft | 532 kts | 84° |
| 2026-04-13 06:30 | 51.00970 | -13.58615 | 36834 ft | 532 kts | 85° |
| 2026-04-13 06:30 | 51.01224 | -13.46924 | 36840 ft | 532 kts | 85° |
| 2026-04-13 06:31 | 51.01467 | -13.35174 | 36842 ft | 532 kts | 85° |
| 2026-04-13 06:31 | 51.01696 | -13.23428 | 36838 ft | 531 kts | 85° |
| 2026-04-13 06:32 | 51.01914 | -13.11687 | 36841 ft | 531 kts | 85° |
| 2026-04-13 06:32 | 51.02121 | -12.99937 | 36852 ft | 531 kts | 85° |
| 2026-04-13 06:33 | 51.02316 | -12.88194 | 36840 ft | 531 kts | 85° |
| 2026-04-13 06:33 | 51.02497 | -12.76455 | 36856 ft | 531 kts | 85° |
| 2026-04-13 06:34 | 51.02669 | -12.64723 | 36862 ft | 531 kts | 85° |
| 2026-04-13 06:34 | 51.02829 | -12.52945 | 36864 ft | 531 kts | 85° |
| 2026-04-13 06:35 | 51.02977 | -12.41194 | 36863 ft | 531 kts | 85° |
| 2026-04-13 06:35 | 51.03110 | -12.29517 | 36874 ft | 530 kts | 85° |
| 2026-04-13 06:36 | 51.03234 | -12.17780 | 36867 ft | 530 kts | 85° |
| 2026-04-13 06:36 | 51.03347 | -12.06038 | 36866 ft | 530 kts | 86° |
| 2026-04-13 06:37 | 51.03448 | -11.94300 | 36866 ft | 531 kts | 86° |
| 2026-04-13 06:37 | 51.03535 | -11.82568 | 36873 ft | 530 kts | 86° |
| 2026-04-13 06:38 | 51.03612 | -11.70803 | 36872 ft | 530 kts | 86° |
| 2026-04-13 06:38 | 51.03678 | -11.59071 | 36874 ft | 530 kts | 86° |
| 2026-04-13 06:39 | 51.03732 | -11.47334 | 36874 ft | 530 kts | 86° |
| 2026-04-13 06:39 | 51.03772 | -11.35592 | 36889 ft | 530 kts | 86° |
| 2026-04-13 06:40 | 51.03802 | -11.23863 | 36872 ft | 530 kts | 86° |
| 2026-04-13 06:40 | 51.03821 | -11.12206 | 36866 ft | 529 kts | 86° |
| 2026-04-13 06:41 | 51.03827 | -11.00422 | 36886 ft | 529 kts | 86° |
| 2026-04-13 06:41 | 51.03821 | -10.88788 | 36899 ft | 529 kts | 86° |
| 2026-04-13 06:42 | 51.03803 | -10.77085 | 36889 ft | 528 kts | 86° |
| 2026-04-13 06:43 | 51.03757 | -10.59518 | 36887 ft | 528 kts | 86° |
| 2026-04-13 06:43 | 51.03711 | -10.47820 | 36893 ft | 529 kts | 86° |
| 2026-04-13 06:44 | 51.03652 | -10.36125 | 36896 ft | 527 kts | 86° |
| 2026-04-13 06:44 | 51.03583 | -10.24457 | 36892 ft | 527 kts | 86° |
| 2026-04-13 06:45 | 51.03503 | -10.12870 | 36899 ft | 527 kts | 87° |
| 2026-04-13 06:45 | 51.03411 | -10.01204 | 36900 ft | 527 kts | 87° |
| 2026-04-13 06:46 | 51.03307 | -9.89543 | 36893 ft | 527 kts | 87° |
| 2026-04-13 06:46 | 51.03191 | -9.77876 | 36900 ft | 527 kts | 87° |
| 2026-04-13 06:47 | 51.03064 | -9.66196 | 36898 ft | 527 kts | 87° |
| 2026-04-13 06:47 | 51.02925 | -9.54522 | 36901 ft | 527 kts | 87° |
| 2026-04-13 06:48 | 51.02773 | -9.42865 | 36911 ft | 526 kts | 87° |
| 2026-04-13 06:48 | 51.02611 | -9.31228 | 36908 ft | 526 kts | 87° |
| 2026-04-13 06:49 | 51.02440 | -9.19673 | 36909 ft | 526 kts | 88° |
| 2026-04-13 06:49 | 51.02255 | -9.08024 | 36912 ft | 526 kts | 88° |
| 2026-04-13 06:50 | 51.02059 | -8.96408 | 36924 ft | 525 kts | 88° |
| 2026-04-13 06:50 | 51.01851 | -8.84815 | 36911 ft | 524 kts | 88° |
| 2026-04-13 06:51 | 51.01633 | -8.73227 | 36911 ft | 524 kts | 88° |
| 2026-04-13 06:51 | 51.01404 | -8.61632 | 36899 ft | 524 kts | 88° |
| 2026-04-13 06:52 | 51.01163 | -8.50052 | 36928 ft | 523 kts | 88° |
| 2026-04-13 06:52 | 51.00912 | -8.38527 | 36917 ft | 521 kts | 88° |
| 2026-04-13 06:53 | 51.00650 | -8.27005 | 36923 ft | 521 kts | 88° |
| 2026-04-13 06:53 | 51.00379 | -8.15571 | 36921 ft | 521 kts | 88° |
| 2026-04-13 06:54 | 51.00092 | -8.03974 | 36940 ft | 521 kts | 88° |
| 2026-04-13 06:54 | 51.00188 | -7.92489 | 36927 ft | 516 kts | 83° |
| 2026-04-13 06:55 | 51.00531 | -7.81095 | 36924 ft | 516 kts | 83° |
| 2026-04-13 06:55 | 51.00870 | -7.69770 | 36926 ft | 516 kts | 83° |
| 2026-04-13 06:56 | 51.01194 | -7.58351 | 36923 ft | 516 kts | 83° |
| 2026-04-13 06:56 | 51.01494 | -7.47314 | 36932 ft | 516 kts | 84° |
| 2026-04-13 06:57 | 51.01782 | -7.36216 | 36933 ft | 517 kts | 84° |
| 2026-04-13 06:57 | 51.02057 | -7.25214 | 36931 ft | 517 kts | 84° |
| 2026-04-13 06:58 | 51.02332 | -7.13798 | 36930 ft | 517 kts | 84° |
| 2026-04-13 06:58 | 51.02597 | -7.02363 | 36936 ft | 517 kts | 84° |
| 2026-04-13 06:59 | 51.02849 | -6.90924 | 36933 ft | 518 kts | 84° |
| 2026-04-13 06:59 | 51.03091 | -6.79482 | 36935 ft | 518 kts | 84° |
| 2026-04-13 07:00 | 51.03321 | -6.68028 | 36934 ft | 518 kts | 84° |
| 2026-04-13 07:00 | 51.03542 | -6.56571 | 36947 ft | 518 kts | 84° |
| 2026-04-13 07:01 | 51.03750 | -6.45104 | 36938 ft | 518 kts | 85° |
| 2026-04-13 07:01 | 51.03947 | -6.33630 | 36938 ft | 518 kts | 85° |
| 2026-04-13 07:02 | 51.04133 | -6.22165 | 36945 ft | 518 kts | 85° |
| 2026-04-13 07:02 | 51.04391 | -6.05030 | 36951 ft | 518 kts | 85° |
| 2026-04-13 07:03 | 51.04548 | -5.93581 | 36945 ft | 518 kts | 85° |
| 2026-04-13 07:03 | 51.04695 | -5.82113 | 36949 ft | 518 kts | 85° |
| 2026-04-13 07:04 | 51.04831 | -5.70631 | 36952 ft | 518 kts | 85° |
| 2026-04-13 07:04 | 51.04958 | -5.59182 | 36962 ft | 516 kts | 86° |
| 2026-04-13 07:05 | 51.05069 | -5.47769 | 36950 ft | 515 kts | 86° |
| 2026-04-13 07:05 | 51.05170 | -5.36356 | 36959 ft | 515 kts | 86° |
| 2026-04-13 07:06 | 51.05260 | -5.24942 | 36956 ft | 516 kts | 86° |
| 2026-04-13 07:06 | 51.05339 | -5.13524 | 36967 ft | 516 kts | 86° |
| 2026-04-13 07:07 | 51.05408 | -5.02111 | 36967 ft | 516 kts | 86° |
| 2026-04-13 07:07 | 51.05465 | -4.90698 | 36968 ft | 516 kts | 86° |
| 2026-04-13 07:08 | 51.05511 | -4.79274 | 36972 ft | 516 kts | 86° |
| 2026-04-13 07:08 | 51.05550 | -4.67861 | 36972 ft | 515 kts | 87° |
| 2026-04-13 07:09 | 51.05573 | -4.56545 | 36965 ft | 514 kts | 87° |
| 2026-04-13 07:09 | 51.05583 | -4.45147 | 36974 ft | 514 kts | 87° |
| 2026-04-13 07:10 | 51.05584 | -4.33752 | 36977 ft | 515 kts | 87° |
| 2026-04-13 07:10 | 51.05577 | -4.24210 | 36993 ft | 515 kts | 88° |
| 2026-04-13 07:11 | 51.05561 | -4.10992 | 36982 ft | 513 kts | 88° |
| 2026-04-13 07:11 | 51.05530 | -4.01131 | 36980 ft | 513 kts | 88° |
| 2026-04-13 07:12 | 51.05495 | -3.91704 | 36980 ft | 513 kts | 89° |
| 2026-04-13 07:12 | 51.05444 | -3.80342 | 36980 ft | 513 kts | 89° |
| 2026-04-13 07:13 | 51.05388 | -3.68990 | 36986 ft | 512 kts | 89° |
| 2026-04-13 07:13 | 51.05314 | -3.57658 | 36988 ft | 512 kts | 89° |
| 2026-04-13 07:14 | 51.05229 | -3.46331 | 36985 ft | 512 kts | 89° |
| 2026-04-13 07:14 | 51.05135 | -3.35000 | 36990 ft | 512 kts | 89° |
| 2026-04-13 07:15 | 51.05036 | -3.23680 | 36993 ft | 511 kts | 90° |
| 2026-04-13 07:15 | 51.04919 | -3.12378 | 36991 ft | 510 kts | 90° |
| 2026-04-13 07:16 | 51.04789 | -3.01073 | 36989 ft | 510 kts | 90° |
| 2026-04-13 07:16 | 51.04651 | -2.89789 | 36988 ft | 510 kts | 90° |
| 2026-04-13 07:17 | 51.04517 | -2.79243 | 36993 ft | 510 kts | 91° |
| 2026-04-13 07:17 | 51.04361 | -2.67977 | 36993 ft | 509 kts | 91° |
| 2026-04-13 07:18 | 51.04191 | -2.56791 | 36992 ft | 509 kts | 91° |
| 2026-04-13 07:18 | 51.04011 | -2.45522 | 36993 ft | 509 kts | 91° |
| 2026-04-13 07:19 | 51.03822 | -2.34265 | 36992 ft | 509 kts | 92° |
| 2026-04-13 07:19 | 51.03625 | -2.23025 | 36993 ft | 508 kts | 92° |
| 2026-04-13 07:20 | 51.03411 | -2.11794 | 36994 ft | 508 kts | 92° |
| 2026-04-13 07:20 | 51.03246 | -2.00562 | 36992 ft | 508 kts | 90° |
| 2026-04-13 07:21 | 51.03585 | -1.89345 | 36995 ft | 508 kts | 86° |
| 2026-04-13 07:21 | 51.04055 | -1.78138 | 36991 ft | 507 kts | 87° |
| 2026-04-13 07:22 | 51.04501 | -1.67014 | 36993 ft | 507 kts | 87° |
| 2026-04-13 07:22 | 51.04934 | -1.55805 | 36993 ft | 507 kts | 87° |
| 2026-04-13 07:23 | 51.05355 | -1.44594 | 36993 ft | 507 kts | 87° |
| 2026-04-13 07:23 | 51.05771 | -1.33386 | 36988 ft | 507 kts | 88° |
| 2026-04-13 07:24 | 51.06168 | -1.22190 | 36992 ft | 506 kts | 88° |
| 2026-04-13 07:24 | 51.06555 | -1.10989 | 36992 ft | 506 kts | 88° |
| 2026-04-13 07:25 | 51.06931 | -0.99807 | 36992 ft | 506 kts | 88° |
| 2026-04-13 07:25 | 51.07303 | -0.88604 | 36996 ft | 506 kts | 89° |
| 2026-04-13 07:26 | 51.07659 | -0.77415 | 36986 ft | 506 kts | 89° |
| 2026-04-13 07:26 | 51.08002 | -0.66222 | 36998 ft | 506 kts | 89° |
| 2026-04-13 07:27 | 51.08335 | -0.55026 | 36994 ft | 506 kts | 89° |
| 2026-04-13 07:27 | 51.08659 | -0.43833 | 36987 ft | 506 kts | 89° |
| 2026-04-13 07:28 | 51.08972 | -0.32627 | 36997 ft | 506 kts | 89° |
| 2026-04-13 07:28 | 51.09273 | -0.21509 | 36989 ft | 506 kts | 89° |
| 2026-04-13 07:29 | 51.09566 | -0.10295 | 36996 ft | 506 kts | 89° |
| 2026-04-13 07:29 | 51.09849 | 0.00905 | 36923 ft | 506 kts | 90° |
| 2026-04-13 07:30 | 51.10124 | 0.12109 | 36901 ft | 505 kts | 90° |
| 2026-04-13 07:30 | 51.10379 | 0.23282 | 36865 ft | 505 kts | 90° |
| 2026-04-13 07:31 | 51.10627 | 0.34471 | 36833 ft | 505 kts | 90° |
| 2026-04-13 07:31 | 51.10864 | 0.45659 | 36832 ft | 505 kts | 90° |
| 2026-04-13 07:32 | 51.11097 | 0.56824 | 36841 ft | 503 kts | 91° |
| 2026-04-13 07:32 | 51.11311 | 0.67969 | 36879 ft | 503 kts | 91° |
| 2026-04-13 07:33 | 51.11513 | 0.79036 | 36918 ft | 503 kts | 91° |
| 2026-04-13 07:34 | 51.11801 | 0.95743 | 36986 ft | 503 kts | 92° |
| 2026-04-13 07:34 | 51.11958 | 1.05048 | 37007 ft | 501 kts | 92° |
| 2026-04-13 07:35 | 51.12080 | 1.13179 | 37009 ft | 501 kts | 92° |
| 2026-04-13 07:35 | 51.12239 | 1.24288 | 37006 ft | 501 kts | 92° |
| 2026-04-13 07:36 | 51.12390 | 1.35395 | 37006 ft | 501 kts | 92° |
| 2026-04-13 07:36 | 51.12535 | 1.46490 | 36987 ft | 500 kts | 93° |
| 2026-04-13 07:37 | 51.12666 | 1.57574 | 36998 ft | 500 kts | 93° |
| 2026-04-13 07:37 | 51.12782 | 1.68576 | 37002 ft | 500 kts | 94° |
| 2026-04-13 07:38 | 51.12892 | 1.79662 | 37005 ft | 500 kts | 94° |
| 2026-04-13 07:38 | 51.12991 | 1.90742 | 36981 ft | 500 kts | 94° |
| 2026-04-13 07:39 | 51.12962 | 2.01781 | 37011 ft | 496 kts | 98° |
| 2026-04-13 07:39 | 51.12449 | 2.12719 | 37012 ft | 494 kts | 100° |
| 2026-04-13 07:40 | 51.11883 | 2.23641 | 37009 ft | 494 kts | 100° |
| 2026-04-13 07:40 | 51.11318 | 2.34547 | 37004 ft | 494 kts | 100° |
| 2026-04-13 07:41 | 51.10751 | 2.45465 | 36989 ft | 493 kts | 101° |
| 2026-04-13 07:41 | 51.10165 | 2.56343 | 36990 ft | 492 kts | 101° |
| 2026-04-13 07:42 | 51.09173 | 2.67001 | 36993 ft | 487 kts | 108° |
| 2026-04-13 07:42 | 51.07492 | 2.77388 | 36997 ft | 483 kts | 112° |
| 2026-04-13 07:43 | 51.05609 | 2.87651 | 36973 ft | 482 kts | 112° |
| 2026-04-13 07:43 | 51.03727 | 2.97862 | 36991 ft | 480 kts | 112° |
| 2026-04-13 07:44 | 51.01841 | 3.08050 | 36994 ft | 480 kts | 112° |
| 2026-04-13 07:44 | 50.99947 | 3.18238 | 36990 ft | 480 kts | 113° |
| 2026-04-13 07:45 | 50.98044 | 3.28425 | 36989 ft | 480 kts | 113° |
| 2026-04-13 07:45 | 50.96134 | 3.38588 | 36979 ft | 480 kts | 113° |
| 2026-04-13 07:46 | 50.94218 | 3.48740 | 36985 ft | 480 kts | 113° |
| 2026-04-13 07:46 | 50.92295 | 3.58874 | 36988 ft | 479 kts | 113° |
| 2026-04-13 07:47 | 50.90360 | 3.69014 | 37005 ft | 479 kts | 113° |
| 2026-04-13 07:47 | 50.88421 | 3.79122 | 36971 ft | 479 kts | 113° |
| 2026-04-13 07:48 | 50.86470 | 3.89236 | 37003 ft | 479 kts | 113° |
| 2026-04-13 07:48 | 50.84513 | 3.99330 | 37000 ft | 479 kts | 113° |
| 2026-04-13 07:49 | 50.82551 | 4.09396 | 36998 ft | 479 kts | 113° |
| 2026-04-13 07:49 | 50.80576 | 4.19474 | 36993 ft | 479 kts | 113° |
| 2026-04-13 07:50 | 50.78595 | 4.29526 | 36988 ft | 477 kts | 113° |
| 2026-04-13 07:50 | 50.76609 | 4.39557 | 36993 ft | 477 kts | 113° |
| 2026-04-13 07:51 | 50.74631 | 4.49501 | 36988 ft | 477 kts | 113° |
| 2026-04-13 07:51 | 50.72626 | 4.59526 | 36991 ft | 477 kts | 114° |
| 2026-04-13 07:52 | 50.70612 | 4.69540 | 36966 ft | 477 kts | 114° |
| 2026-04-13 07:52 | 50.68596 | 4.79511 | 36985 ft | 476 kts | 114° |
| 2026-04-13 07:53 | 50.66575 | 4.89466 | 36987 ft | 476 kts | 114° |
| 2026-04-13 07:53 | 50.64542 | 4.99424 | 36989 ft | 476 kts | 114° |
| 2026-04-13 07:54 | 50.62504 | 5.09359 | 36987 ft | 476 kts | 114° |
| 2026-04-13 07:54 | 50.60457 | 5.19281 | 36976 ft | 475 kts | 114° |
| 2026-04-13 07:55 | 50.58410 | 5.29167 | 36986 ft | 474 kts | 114° |
| 2026-04-13 07:55 | 50.56354 | 5.39047 | 36988 ft | 474 kts | 114° |
| 2026-04-13 07:56 | 50.54288 | 5.48928 | 36763 ft | 475 kts | 114° |
| 2026-04-13 07:56 | 50.53604 | 5.52193 | 36525 ft | 473 kts | 114° |
| 2026-04-13 07:56 | 50.52243 | 5.58680 | 35845 ft | 469 kts | 115° |
| 2026-04-13 07:56 | 50.51241 | 5.63583 | 35346 ft | 468 kts | 113° |
| 2026-04-13 07:57 | 50.50327 | 5.68473 | 34842 ft | 465 kts | 113° |
| 2026-04-13 07:57 | 50.49416 | 5.73358 | 34317 ft | 464 kts | 114° |
| 2026-04-13 07:57 | 50.48508 | 5.78219 | 33741 ft | 463 kts | 114° |
| 2026-04-13 07:57 | 50.47595 | 5.83071 | 33128 ft | 462 kts | 114° |
| 2026-04-13 07:58 | 50.46680 | 5.87916 | 32511 ft | 462 kts | 114° |
| 2026-04-13 07:58 | 50.45765 | 5.92753 | 31908 ft | 462 kts | 114° |
| 2026-04-13 07:58 | 50.44861 | 5.97523 | 31289 ft | 462 kts | 113° |
| 2026-04-13 07:58 | 50.43933 | 6.02417 | 30620 ft | 462 kts | 113° |
| 2026-04-13 07:59 | 50.43011 | 6.07253 | 29989 ft | 462 kts | 112° |
| 2026-04-13 07:59 | 50.42101 | 6.12030 | 29243 ft | 463 kts | 112° |
| 2026-04-13 07:59 | 50.41477 | 6.15305 | 28783 ft | 463 kts | 112° |
| 2026-04-13 07:59 | 50.40554 | 6.20146 | 28107 ft | 462 kts | 112° |
| 2026-04-13 08:00 | 50.39627 | 6.24990 | 27583 ft | 465 kts | 112° |
| 2026-04-13 08:00 | 50.38696 | 6.29839 | 27089 ft | 463 kts | 112° |
| 2026-04-13 08:00 | 50.37770 | 6.34657 | 26618 ft | 459 kts | 112° |
| 2026-04-13 08:00 | 50.36988 | 6.39176 | 26202 ft | 456 kts | 109° |
| 2026-04-13 08:01 | 50.36353 | 6.44052 | 25770 ft | 454 kts | 105° |
| 2026-04-13 08:01 | 50.35916 | 6.48956 | 25322 ft | 452 kts | 101° |
| 2026-04-13 08:01 | 50.35609 | 6.53842 | 24915 ft | 448 kts | 100° |
| 2026-04-13 08:01 | 50.35319 | 6.58683 | 24498 ft | 444 kts | 100° |
| 2026-04-13 08:02 | 50.35028 | 6.63473 | 24078 ft | 439 kts | 100° |
| 2026-04-13 08:02 | 50.34731 | 6.68219 | 23657 ft | 435 kts | 100° |
| 2026-04-13 08:02 | 50.34430 | 6.72928 | 23186 ft | 431 kts | 100° |
| 2026-04-13 08:02 | 50.34135 | 6.77582 | 22734 ft | 427 kts | 100° |
| 2026-04-13 08:03 | 50.33783 | 6.82176 | 22298 ft | 421 kts | 104° |
| 2026-04-13 08:03 | 50.33146 | 6.86553 | 21861 ft | 414 kts | 110° |
| 2026-04-13 08:03 | 50.32210 | 6.90773 | 21434 ft | 407 kts | 117° |
| 2026-04-13 08:03 | 50.31062 | 6.94794 | 21012 ft | 402 kts | 119° |
| 2026-04-13 08:04 | 50.29882 | 6.98740 | 20606 ft | 398 kts | 119° |
| 2026-04-13 08:04 | 50.28696 | 7.02687 | 20188 ft | 395 kts | 119° |
| 2026-04-13 08:04 | 50.27531 | 7.06573 | 19773 ft | 392 kts | 119° |
| 2026-04-13 08:04 | 50.26392 | 7.10374 | 19357 ft | 390 kts | 119° |
| 2026-04-13 08:05 | 50.25245 | 7.14199 | 18940 ft | 387 kts | 118° |
| 2026-04-13 08:05 | 50.24177 | 7.17763 | 18548 ft | 386 kts | 118° |
| 2026-04-13 08:05 | 50.23031 | 7.21579 | 18118 ft | 384 kts | 118° |
| 2026-04-13 08:05 | 50.21898 | 7.25347 | 17640 ft | 382 kts | 119° |
| 2026-04-13 08:06 | 50.20773 | 7.29087 | 17219 ft | 379 kts | 119° |
| 2026-04-13 08:06 | 50.19680 | 7.32859 | 16787 ft | 378 kts | 116° |
| 2026-04-13 08:06 | 50.18723 | 7.36676 | 16343 ft | 377 kts | 114° |
| 2026-04-13 08:06 | 50.17804 | 7.40509 | 15946 ft | 374 kts | 114° |
| 2026-04-13 08:07 | 50.16899 | 7.44314 | 15525 ft | 372 kts | 114° |
| 2026-04-13 08:07 | 50.15994 | 7.48113 | 15103 ft | 371 kts | 114° |
| 2026-04-13 08:07 | 50.15096 | 7.51879 | 14687 ft | 369 kts | 114° |
| 2026-04-13 08:07 | 50.14198 | 7.55631 | 14277 ft | 368 kts | 114° |
| 2026-04-13 08:08 | 50.13314 | 7.59314 | 13874 ft | 366 kts | 114° |
| 2026-04-13 08:08 | 50.12420 | 7.63030 | 13422 ft | 365 kts | 114° |
| 2026-04-13 08:08 | 50.11531 | 7.66723 | 12991 ft | 363 kts | 114° |
| 2026-04-13 08:08 | 50.10719 | 7.70499 | 12559 ft | 361 kts | 111° |
| 2026-04-13 08:09 | 50.09989 | 7.74227 | 12164 ft | 357 kts | 110° |
| 2026-04-13 08:09 | 50.09273 | 7.77918 | 11767 ft | 354 kts | 110° |
| 2026-04-13 08:09 | 50.08577 | 7.81534 | 11368 ft | 352 kts | 109° |
| 2026-04-13 08:09 | 50.08253 | 7.85333 | 10941 ft | 356 kts | 93° |
| 2026-04-13 08:10 | 50.08612 | 7.89227 | 10745 ft | 367 kts | 77° |
| 2026-04-13 08:10 | 50.09447 | 7.92907 | 10793 ft | 352 kts | 72° |
| 2026-04-13 08:10 | 50.10317 | 7.96381 | 10802 ft | 335 kts | 72° |
| 2026-04-13 08:10 | 50.11152 | 7.99684 | 10819 ft | 319 kts | 72° |
| 2026-04-13 08:11 | 50.11939 | 8.02822 | 10825 ft | 304 kts | 73° |
| 2026-04-13 08:11 | 50.12700 | 8.05913 | 10850 ft | 303 kts | 73° |
| 2026-04-13 08:11 | 50.13449 | 8.08984 | 10873 ft | 303 kts | 73° |
| 2026-04-13 08:12 | 50.14944 | 8.15133 | 10917 ft | 303 kts | 73° |
| 2026-04-13 08:12 | 50.15690 | 8.18211 | 10932 ft | 303 kts | 73° |
| 2026-04-13 08:12 | 50.16436 | 8.21297 | 10942 ft | 303 kts | 73° |
| 2026-04-13 08:12 | 50.17181 | 8.24378 | 10946 ft | 303 kts | 73° |
| 2026-04-13 08:13 | 50.17926 | 8.27463 | 10948 ft | 303 kts | 73° |
| 2026-04-13 08:13 | 50.18568 | 8.30578 | 10928 ft | 297 kts | 84° |
| 2026-04-13 08:13 | 50.18637 | 8.33755 | 10945 ft | 290 kts | 102° |
| 2026-04-13 08:13 | 50.18116 | 8.36757 | 10947 ft | 287 kts | 118° |
| 2026-04-13 08:14 | 50.17024 | 8.39468 | 10955 ft | 307 kts | 134° |
| 2026-04-13 08:14 | 50.15353 | 8.41681 | 10951 ft | 315 kts | 150° |
| 2026-04-13 08:14 | 50.13394 | 8.42958 | 10923 ft | 297 kts | 167° |
| 2026-04-13 08:14 | 50.11399 | 8.43263 | 10929 ft | 284 kts | 183° |
| 2026-04-13 08:15 | 50.09459 | 8.42684 | 10937 ft | 285 kts | 198° |
| 2026-04-13 08:15 | 50.07690 | 8.41272 | 10938 ft | 288 kts | 213° |
| 2026-04-13 08:15 | 50.06234 | 8.39117 | 10937 ft | 292 kts | 229° |
| 2026-04-13 08:15 | 50.05218 | 8.36363 | 10941 ft | 297 kts | 245° |
| 2026-04-13 08:16 | 50.04753 | 8.33260 | 10940 ft | 302 kts | 262° |
| 2026-04-13 08:16 | 50.04898 | 8.29963 | 10941 ft | 308 kts | 279° |
| 2026-04-13 08:16 | 50.05449 | 8.26722 | 10947 ft | 309 kts | 279° |
| 2026-04-13 08:16 | 50.05718 | 8.23435 | 10952 ft | 303 kts | 265° |
| 2026-04-13 08:17 | 50.05393 | 8.20244 | 10944 ft | 296 kts | 249° |
| 2026-04-13 08:17 | 50.04729 | 8.17222 | 10950 ft | 294 kts | 246° |
| 2026-04-13 08:17 | 50.04012 | 8.14230 | 10947 ft | 294 kts | 245° |
| 2026-04-13 08:17 | 50.03283 | 8.11258 | 10946 ft | 294 kts | 245° |
| 2026-04-13 08:18 | 50.02555 | 8.08286 | 10937 ft | 294 kts | 245° |
| 2026-04-13 08:18 | 50.01827 | 8.05310 | 10817 ft | 293 kts | 245° |
| 2026-04-13 08:18 | 50.01103 | 8.02343 | 10681 ft | 292 kts | 245° |
| 2026-04-13 08:18 | 50.00384 | 7.99400 | 10487 ft | 289 kts | 245° |
| 2026-04-13 08:19 | 49.99675 | 7.96503 | 10196 ft | 284 kts | 245° |
| 2026-04-13 08:19 | 49.98975 | 7.93645 | 9796 ft | 280 kts | 245° |
| 2026-04-13 08:19 | 49.98285 | 7.90835 | 9357 ft | 275 kts | 245° |
| 2026-04-13 08:19 | 49.97607 | 7.88081 | 8923 ft | 270 kts | 244° |
| 2026-04-13 08:20 | 49.96763 | 7.85547 | 8471 ft | 259 kts | 224° |
| 2026-04-13 08:20 | 49.95358 | 7.83905 | 8125 ft | 251 kts | 200° |
| 2026-04-13 08:20 | 49.93667 | 7.83363 | 7798 ft | 249 kts | 177° |
| 2026-04-13 08:20 | 49.91982 | 7.83934 | 7531 ft | 250 kts | 160° |
| 2026-04-13 08:21 | 49.90374 | 7.84873 | 7329 ft | 250 kts | 159° |
| 2026-04-13 08:21 | 49.88876 | 7.86180 | 7040 ft | 248 kts | 136° |
| 2026-04-13 08:21 | 49.87995 | 7.88441 | 6783 ft | 248 kts | 106° |
| 2026-04-13 08:21 | 49.87855 | 7.91100 | 6550 ft | 248 kts | 87° |
| 2026-04-13 08:22 | 49.88229 | 7.93710 | 6249 ft | 249 kts | 72° |
| 2026-04-13 08:22 | 49.88914 | 7.96182 | 5937 ft | 248 kts | 68° |
| 2026-04-13 08:22 | 49.89628 | 7.98596 | 5698 ft | 245 kts | 69° |
| 2026-04-13 08:22 | 49.90304 | 8.01012 | 5452 ft | 242 kts | 70° |
| 2026-04-13 08:23 | 49.90940 | 8.03423 | 5196 ft | 239 kts | 70° |
| 2026-04-13 08:23 | 49.91540 | 8.05812 | 4913 ft | 236 kts | 71° |
| 2026-04-13 08:23 | 49.92117 | 8.08192 | 4484 ft | 235 kts | 71° |
| 2026-04-13 08:23 | 49.92679 | 8.10560 | 4142 ft | 229 kts | 71° |
| 2026-04-13 08:24 | 49.93212 | 8.12841 | 4076 ft | 224 kts | 71° |
| 2026-04-13 08:24 | 49.93727 | 8.15058 | 4022 ft | 212 kts | 71° |
| 2026-04-13 08:24 | 49.94219 | 8.17178 | 3998 ft | 199 kts | 71° |
| 2026-04-13 08:24 | 49.94671 | 8.19128 | 4016 ft | 183 kts | 71° |
| 2026-04-13 08:25 | 49.95096 | 8.20963 | 4002 ft | 179 kts | 71° |
| 2026-04-13 08:25 | 49.95521 | 8.22790 | 3976 ft | 180 kts | 71° |
| 2026-04-13 08:25 | 49.95939 | 8.24589 | 3993 ft | 179 kts | 71° |
| 2026-04-13 08:25 | 49.96372 | 8.26442 | 3975 ft | 180 kts | 71° |
| 2026-04-13 08:26 | 49.96793 | 8.28241 | 3794 ft | 179 kts | 71° |
| 2026-04-13 08:26 | 49.97215 | 8.30036 | 3544 ft | 175 kts | 71° |
| 2026-04-13 08:26 | 49.97628 | 8.31788 | 3306 ft | 170 kts | 71° |
| 2026-04-13 08:26 | 49.98029 | 8.33488 | 3085 ft | 165 kts | 71° |
| 2026-04-13 08:27 | 49.98423 | 8.35163 | 2861 ft | 163 kts | 70° |
| 2026-04-13 08:27 | 49.98806 | 8.36778 | 2632 ft | 155 kts | 71° |
| 2026-04-13 08:27 | 49.99169 | 8.38313 | 2415 ft | 146 kts | 71° |
| 2026-04-13 08:27 | 49.99516 | 8.39780 | 2217 ft | 144 kts | 70° |
| 2026-04-13 08:28 | 49.99862 | 8.41244 | 2046 ft | 143 kts | 70° |
| 2026-04-13 08:28 | 50.00207 | 8.42700 | 1853 ft | 143 kts | 69° |
| 2026-04-13 08:28 | 50.00551 | 8.44151 | 1664 ft | 143 kts | 69° |
| 2026-04-13 08:28 | 50.00894 | 8.45596 | 1457 ft | 142 kts | 69° |
| 2026-04-13 08:29 | 50.01239 | 8.47049 | 1245 ft | 143 kts | 68° |
| 2026-04-13 08:29 | 50.01585 | 8.48508 | 1026 ft | 143 kts | 68° |
| 2026-04-13 08:29 | 50.01932 | 8.49966 | 824 ft | 144 kts | 68° |
| 2026-04-13 08:29 | 50.02277 | 8.51430 | 628 ft | 144 kts | 69° |
| 2026-04-13 08:30 | 50.02627 | 8.52890 | 464 ft | 144 kts | 67° |
| 2026-04-13 08:30 | 50.02976 | 8.54320 | 349 ft | 129 kts | 69° |
| 2026-04-13 08:30 | 50.03217 | 8.55344 | 354 ft | 72 kts | 69° |
| 2026-04-13 08:30 | 50.03334 | 8.55838 | 358 ft | 29 kts | 70° |
| 2026-04-13 08:31 | 50.03406 | 8.56123 | 361 ft | 28 kts | 63° |
| 2026-04-13 08:31 | 50.03500 | 8.56320 | 366 ft | 18 kts | 44° |
| 2026-04-13 08:31 | 50.03590 | 8.56439 | 361 ft | 4 kts | 40° |
| 2026-04-13 08:31 | 50.03615 | 8.56471 | 361 ft | 5 kts | 39° |
| 2026-04-13 08:32 | 50.03644 | 8.56509 | 365 ft | 5 kts | 39° |
| 2026-04-13 08:32 | 50.03655 | 8.56522 | 365 ft | 1 kts | 39° |
| 2026-04-13 08:32 | 50.03662 | 8.56531 | 365 ft | 2 kts | 39° |
| 2026-04-13 08:32 | 50.03675 | 8.56548 | 363 ft | 2 kts | 39° |
| 2026-04-13 08:33 | 50.03691 | 8.56569 | 363 ft | 4 kts | 39° |
| 2026-04-13 08:33 | 50.03728 | 8.56611 | 367 ft | 10 kts | 31° |
| 2026-04-13 08:33 | 50.03813 | 8.56656 | 366 ft | 15 kts | 12° |
| 2026-04-13 08:33 | 50.03921 | 8.56691 | 369 ft | 17 kts | 12° |
| 2026-04-13 08:34 | 50.04044 | 8.56730 | 370 ft | 15 kts | 12° |
| 2026-04-13 08:34 | 50.04109 | 8.56752 | 373 ft | 4 kts | 12° |
| 2026-04-13 08:34 | 50.04152 | 8.56765 | 370 ft | 8 kts | 12° |
| 2026-04-13 08:34 | 50.04212 | 8.56763 | 372 ft | 9 kts | 329° |
| 2026-04-13 08:35 | 50.04216 | 8.56650 | 370 ft | 14 kts | 249° |
| 2026-04-13 08:35 | 50.04184 | 8.56519 | 368 ft | 15 kts | 249° |
| 2026-04-13 08:35 | 50.04155 | 8.56394 | 368 ft | 8 kts | 250° |
| 2026-04-13 08:35 | 50.04146 | 8.56320 | 366 ft | 7 kts | 292° |
| 2026-04-13 08:36 | 50.04192 | 8.56268 | 365 ft | 10 kts | 338° |
| 2026-04-13 08:36 | 50.04233 | 8.56243 | 366 ft | 5 kts | 339° |
| 2026-04-13 08:36 | 50.04271 | 8.56216 | 367 ft | 7 kts | 322° |
| 2026-04-13 08:36 | 50.04286 | 8.56146 | 367 ft | 2 kts | 275° |
| 2026-04-13 08:37 | 50.04294 | 8.56108 | 367 ft | 5 kts | 298° |
| 2026-04-13 08:37 | 50.04325 | 8.56070 | 370 ft | 7 kts | 333° |
| 2026-04-13 08:37 | 50.04355 | 8.56051 | 371 ft | 0 kts | 338° |
| 2026-04-13 08:37 | 50.04367 | 8.56043 | 368 ft | 3 kts | 338° |
| 2026-04-13 08:38 | 50.04396 | 8.56024 | 368 ft | 5 kts | 333° |
| 2026-04-13 08:38 | 50.04431 | 8.55968 | 368 ft | 9 kts | 316° |
| 2026-04-13 08:38 | 50.04492 | 8.55941 | 370 ft | 5 kts | 7° |
| 2026-04-13 08:38 | 50.04538 | 8.55967 | 368 ft | 9 kts | 35° |
| 2026-04-13 08:39 | 50.04566 | 8.56025 | 368 ft | 1 kts | 63° |
| 2026-04-13 08:39 | 50.04576 | 8.56056 | 368 ft | 5 kts | 64° |
| 2026-04-13 08:39 | 50.04588 | 8.56103 | 367 ft | 0 kts | 68° |
| 2026-04-13 08:39 | 50.04592 | 8.56119 | 368 ft | 3 kts | 69° |
| 2026-04-13 08:40 | 50.04594 | 8.56129 | 368 ft | 2 kts | 69° |
| 2026-04-13 08:40 | 50.04604 | 8.56167 | 371 ft | 5 kts | 64° |
| 2026-04-13 08:40 | 50.04637 | 8.56189 | 371 ft | 7 kts | 352° |
| 2026-04-13 08:40 | 50.04671 | 8.56175 | 370 ft | 5 kts | 341° |
| 2026-04-13 08:41 | 50.04680 | 8.56170 | 371 ft | 1 kts | 341° |
| 2026-04-13 08:41 | 50.04693 | 8.56163 | 368 ft | 0 kts | 340° |